<?xml version="1.0" encoding="UTF-8" standalone="no" ?>
<gpx xmlns="http://www.topografix.com/GPX/1/1" xmlns:xsi="http://www.w3.org/2001/XMLSchema-instance" xsi:schemaLocation="http://www.topografix.com/GPX/1/1 http://www.topografix.com/GPX/1/1/gpx.xsd" version="1.1" creator="VisuGPX - https://www.visugpx.com">
  <metadata>
    <name>Notre Dame des Anges </name>
    <desc><![CDATA[De belles descentes mais pas mal de portage ]]></desc>
  </metadata>
  <trk>
    <name><![CDATA[ACTIVE LOG 001]]></name>
    <trkseg>
      <trkpt lat="44.06022" lon="5.1817">
        <ele>193.8430176</ele>
        <time>2015-10-10T06:30:21Z</time>
      </trkpt>
      <trkpt lat="44.06017" lon="5.18171">
        <ele>194.8043213</ele>
        <time>2015-10-10T06:32:28Z</time>
      </trkpt>
      <trkpt lat="44.05997" lon="5.18154">
        <ele>197.6882324</ele>
        <time>2015-10-10T06:32:41Z</time>
      </trkpt>
      <trkpt lat="44.05992" lon="5.18148">
        <ele>199.130127</ele>
        <time>2015-10-10T06:32:45Z</time>
      </trkpt>
      <trkpt lat="44.05988" lon="5.18144">
        <ele>199.6108398</ele>
        <time>2015-10-10T06:32:48Z</time>
      </trkpt>
      <trkpt lat="44.05984" lon="5.18124">
        <ele>197.6882324</ele>
        <time>2015-10-10T06:32:54Z</time>
      </trkpt>
      <trkpt lat="44.05985" lon="5.18118">
        <ele>197.6882324</ele>
        <time>2015-10-10T06:32:57Z</time>
      </trkpt>
      <trkpt lat="44.05977" lon="5.18112">
        <ele>198.6495361</ele>
        <time>2015-10-10T06:33:03Z</time>
      </trkpt>
      <trkpt lat="44.05938" lon="5.18105">
        <ele>201.0528564</ele>
        <time>2015-10-10T06:33:17Z</time>
      </trkpt>
      <trkpt lat="44.05884" lon="5.18092">
        <ele>201.5335693</ele>
        <time>2015-10-10T06:33:32Z</time>
      </trkpt>
      <trkpt lat="44.05859" lon="5.1806">
        <ele>202.0142822</ele>
        <time>2015-10-10T06:33:41Z</time>
      </trkpt>
      <trkpt lat="44.05821" lon="5.18053">
        <ele>200.5722656</ele>
        <time>2015-10-10T06:33:49Z</time>
      </trkpt>
      <trkpt lat="44.05794" lon="5.18024">
        <ele>197.2075195</ele>
        <time>2015-10-10T06:33:55Z</time>
      </trkpt>
      <trkpt lat="44.05789" lon="5.18012">
        <ele>197.6882324</ele>
        <time>2015-10-10T06:33:57Z</time>
      </trkpt>
      <trkpt lat="44.05783" lon="5.17959">
        <ele>199.130127</ele>
        <time>2015-10-10T06:34:06Z</time>
      </trkpt>
      <trkpt lat="44.05783" lon="5.17947">
        <ele>200.0916748</ele>
        <time>2015-10-10T06:34:09Z</time>
      </trkpt>
      <trkpt lat="44.05781" lon="5.17937">
        <ele>200.0916748</ele>
        <time>2015-10-10T06:34:18Z</time>
      </trkpt>
      <trkpt lat="44.05779" lon="5.17952">
        <ele>201.0528564</ele>
        <time>2015-10-10T06:34:26Z</time>
      </trkpt>
      <trkpt lat="44.05776" lon="5.17957">
        <ele>202.494873</ele>
        <time>2015-10-10T06:34:34Z</time>
      </trkpt>
      <trkpt lat="44.05776" lon="5.17958">
        <ele>202.9754639</ele>
        <time>2015-10-10T06:34:43Z</time>
      </trkpt>
      <trkpt lat="44.05775" lon="5.17961">
        <ele>203.9368896</ele>
        <time>2015-10-10T06:34:53Z</time>
      </trkpt>
      <trkpt lat="44.05773" lon="5.17961">
        <ele>205.3787842</ele>
        <time>2015-10-10T06:35:17Z</time>
      </trkpt>
      <trkpt lat="44.05773" lon="5.1796">
        <ele>207.3013916</ele>
        <time>2015-10-10T06:35:40Z</time>
      </trkpt>
      <trkpt lat="44.05781" lon="5.17956">
        <ele>209.2241211</ele>
        <time>2015-10-10T06:36:25Z</time>
      </trkpt>
      <trkpt lat="44.0578" lon="5.1795">
        <ele>209.704834</ele>
        <time>2015-10-10T06:36:43Z</time>
      </trkpt>
      <trkpt lat="44.0578" lon="5.17946">
        <ele>209.704834</ele>
        <time>2015-10-10T06:36:49Z</time>
      </trkpt>
      <trkpt lat="44.05788" lon="5.17918">
        <ele>208.2628174</ele>
        <time>2015-10-10T06:36:58Z</time>
      </trkpt>
      <trkpt lat="44.05814" lon="5.1789">
        <ele>202.9754639</ele>
        <time>2015-10-10T06:37:08Z</time>
      </trkpt>
      <trkpt lat="44.05823" lon="5.1786">
        <ele>201.0528564</ele>
        <time>2015-10-10T06:37:14Z</time>
      </trkpt>
      <trkpt lat="44.05821" lon="5.17807">
        <ele>202.0142822</ele>
        <time>2015-10-10T06:37:27Z</time>
      </trkpt>
      <trkpt lat="44.05821" lon="5.17773">
        <ele>204.8980713</ele>
        <time>2015-10-10T06:37:36Z</time>
      </trkpt>
      <trkpt lat="44.05819" lon="5.1773">
        <ele>206.3400879</ele>
        <time>2015-10-10T06:37:47Z</time>
      </trkpt>
      <trkpt lat="44.05818" lon="5.177">
        <ele>208.2628174</ele>
        <time>2015-10-10T06:37:56Z</time>
      </trkpt>
      <trkpt lat="44.05816" lon="5.1767">
        <ele>208.2628174</ele>
        <time>2015-10-10T06:38:04Z</time>
      </trkpt>
      <trkpt lat="44.05799" lon="5.17632">
        <ele>208.7434082</ele>
        <time>2015-10-10T06:38:15Z</time>
      </trkpt>
      <trkpt lat="44.0577" lon="5.17578">
        <ele>211.1467285</ele>
        <time>2015-10-10T06:38:31Z</time>
      </trkpt>
      <trkpt lat="44.05746" lon="5.17533">
        <ele>213.0693359</ele>
        <time>2015-10-10T06:38:46Z</time>
      </trkpt>
      <trkpt lat="44.05724" lon="5.17496">
        <ele>216.43396</ele>
        <time>2015-10-10T06:39:00Z</time>
      </trkpt>
      <trkpt lat="44.05709" lon="5.17461">
        <ele>221.7211914</ele>
        <time>2015-10-10T06:39:14Z</time>
      </trkpt>
      <trkpt lat="44.05694" lon="5.17431">
        <ele>223.163208</ele>
        <time>2015-10-10T06:39:29Z</time>
      </trkpt>
      <trkpt lat="44.05671" lon="5.17402">
        <ele>224.1245117</ele>
        <time>2015-10-10T06:39:43Z</time>
      </trkpt>
      <trkpt lat="44.05656" lon="5.17363">
        <ele>221.7211914</ele>
        <time>2015-10-10T06:39:55Z</time>
      </trkpt>
      <trkpt lat="44.0565" lon="5.17341">
        <ele>218.8372803</ele>
        <time>2015-10-10T06:40:00Z</time>
      </trkpt>
      <trkpt lat="44.05655" lon="5.17318">
        <ele>216.9146729</ele>
        <time>2015-10-10T06:40:04Z</time>
      </trkpt>
      <trkpt lat="44.05679" lon="5.17276">
        <ele>212.588623</ele>
        <time>2015-10-10T06:40:11Z</time>
      </trkpt>
      <trkpt lat="44.05702" lon="5.17246">
        <ele>208.7434082</ele>
        <time>2015-10-10T06:40:17Z</time>
      </trkpt>
      <trkpt lat="44.05698" lon="5.17225">
        <ele>207.3013916</ele>
        <time>2015-10-10T06:40:22Z</time>
      </trkpt>
      <trkpt lat="44.05655" lon="5.17193">
        <ele>206.3400879</ele>
        <time>2015-10-10T06:40:35Z</time>
      </trkpt>
      <trkpt lat="44.05639" lon="5.17161">
        <ele>205.3787842</ele>
        <time>2015-10-10T06:40:41Z</time>
      </trkpt>
      <trkpt lat="44.0563" lon="5.17076">
        <ele>203.4561768</ele>
        <time>2015-10-10T06:40:51Z</time>
      </trkpt>
      <trkpt lat="44.05626" lon="5.1706">
        <ele>202.9754639</ele>
        <time>2015-10-10T06:40:53Z</time>
      </trkpt>
      <trkpt lat="44.05597" lon="5.17001">
        <ele>200.5722656</ele>
        <time>2015-10-10T06:41:02Z</time>
      </trkpt>
      <trkpt lat="44.0558" lon="5.16975">
        <ele>198.6495361</ele>
        <time>2015-10-10T06:41:06Z</time>
      </trkpt>
      <trkpt lat="44.05551" lon="5.16911">
        <ele>200.5722656</ele>
        <time>2015-10-10T06:41:18Z</time>
      </trkpt>
      <trkpt lat="44.05533" lon="5.1688">
        <ele>202.0142822</ele>
        <time>2015-10-10T06:41:28Z</time>
      </trkpt>
      <trkpt lat="44.05527" lon="5.16885">
        <ele>202.9754639</ele>
        <time>2015-10-10T06:41:32Z</time>
      </trkpt>
      <trkpt lat="44.05499" lon="5.16905">
        <ele>205.3787842</ele>
        <time>2015-10-10T06:41:45Z</time>
      </trkpt>
      <trkpt lat="44.05493" lon="5.16905">
        <ele>205.3787842</ele>
        <time>2015-10-10T06:41:48Z</time>
      </trkpt>
      <trkpt lat="44.0547" lon="5.16872">
        <ele>208.7434082</ele>
        <time>2015-10-10T06:42:02Z</time>
      </trkpt>
      <trkpt lat="44.05439" lon="5.16823">
        <ele>207.7821045</ele>
        <time>2015-10-10T06:42:21Z</time>
      </trkpt>
      <trkpt lat="44.05407" lon="5.16793">
        <ele>207.3013916</ele>
        <time>2015-10-10T06:42:36Z</time>
      </trkpt>
      <trkpt lat="44.05387" lon="5.16805">
        <ele>209.704834</ele>
        <time>2015-10-10T06:42:45Z</time>
      </trkpt>
      <trkpt lat="44.05363" lon="5.16831">
        <ele>212.588623</ele>
        <time>2015-10-10T06:42:58Z</time>
      </trkpt>
      <trkpt lat="44.05361" lon="5.16832">
        <ele>213.0693359</ele>
        <time>2015-10-10T06:42:59Z</time>
      </trkpt>
      <trkpt lat="44.05339" lon="5.1682">
        <ele>214.5112305</ele>
        <time>2015-10-10T06:43:09Z</time>
      </trkpt>
      <trkpt lat="44.05297" lon="5.1679">
        <ele>215.4726563</ele>
        <time>2015-10-10T06:43:27Z</time>
      </trkpt>
      <trkpt lat="44.05265" lon="5.16779">
        <ele>218.3565674</ele>
        <time>2015-10-10T06:43:40Z</time>
      </trkpt>
      <trkpt lat="44.05232" lon="5.1678">
        <ele>216.43396</ele>
        <time>2015-10-10T06:43:52Z</time>
      </trkpt>
      <trkpt lat="44.05216" lon="5.16805">
        <ele>218.3565674</ele>
        <time>2015-10-10T06:44:02Z</time>
      </trkpt>
      <trkpt lat="44.05215" lon="5.16808">
        <ele>218.8372803</ele>
        <time>2015-10-10T06:44:03Z</time>
      </trkpt>
      <trkpt lat="44.05217" lon="5.16832">
        <ele>222.2017822</ele>
        <time>2015-10-10T06:44:11Z</time>
      </trkpt>
      <trkpt lat="44.05213" lon="5.16864">
        <ele>227.9697266</ele>
        <time>2015-10-10T06:44:24Z</time>
      </trkpt>
      <trkpt lat="44.05213" lon="5.1689">
        <ele>230.3730469</ele>
        <time>2015-10-10T06:44:35Z</time>
      </trkpt>
      <trkpt lat="44.05208" lon="5.169">
        <ele>231.8149414</ele>
        <time>2015-10-10T06:44:43Z</time>
      </trkpt>
      <trkpt lat="44.05207" lon="5.16901">
        <ele>231.8149414</ele>
        <time>2015-10-10T06:44:44Z</time>
      </trkpt>
      <trkpt lat="44.05201" lon="5.16903">
        <ele>232.7764893</ele>
        <time>2015-10-10T06:44:48Z</time>
      </trkpt>
      <trkpt lat="44.05181" lon="5.16897">
        <ele>234.6990967</ele>
        <time>2015-10-10T06:45:03Z</time>
      </trkpt>
      <trkpt lat="44.05174" lon="5.16898">
        <ele>234.6990967</ele>
        <time>2015-10-10T06:45:09Z</time>
      </trkpt>
      <trkpt lat="44.0517" lon="5.16901">
        <ele>236.1409912</ele>
        <time>2015-10-10T06:45:22Z</time>
      </trkpt>
      <trkpt lat="44.05166" lon="5.16908">
        <ele>237.1022949</ele>
        <time>2015-10-10T06:45:37Z</time>
      </trkpt>
      <trkpt lat="44.05165" lon="5.16915">
        <ele>237.5828857</ele>
        <time>2015-10-10T06:45:47Z</time>
      </trkpt>
      <trkpt lat="44.0516" lon="5.16929">
        <ele>239.5054932</ele>
        <time>2015-10-10T06:46:06Z</time>
      </trkpt>
      <trkpt lat="44.0516" lon="5.16935">
        <ele>240.9476318</ele>
        <time>2015-10-10T06:46:23Z</time>
      </trkpt>
      <trkpt lat="44.05159" lon="5.16935">
        <ele>241.4282227</ele>
        <time>2015-10-10T06:46:27Z</time>
      </trkpt>
      <trkpt lat="44.05156" lon="5.16961">
        <ele>244.7928467</ele>
        <time>2015-10-10T06:46:39Z</time>
      </trkpt>
      <trkpt lat="44.05153" lon="5.16971">
        <ele>244.7928467</ele>
        <time>2015-10-10T06:46:44Z</time>
      </trkpt>
      <trkpt lat="44.05144" lon="5.16994">
        <ele>247.6767578</ele>
        <time>2015-10-10T06:46:57Z</time>
      </trkpt>
      <trkpt lat="44.05141" lon="5.17002">
        <ele>248.1575928</ele>
        <time>2015-10-10T06:47:01Z</time>
      </trkpt>
      <trkpt lat="44.05146" lon="5.17012">
        <ele>248.1575928</ele>
        <time>2015-10-10T06:47:08Z</time>
      </trkpt>
      <trkpt lat="44.0515" lon="5.17016">
        <ele>247.6767578</ele>
        <time>2015-10-10T06:47:12Z</time>
      </trkpt>
      <trkpt lat="44.05153" lon="5.17023">
        <ele>247.1960449</ele>
        <time>2015-10-10T06:47:16Z</time>
      </trkpt>
      <trkpt lat="44.05153" lon="5.17028">
        <ele>247.1960449</ele>
        <time>2015-10-10T06:47:19Z</time>
      </trkpt>
      <trkpt lat="44.05151" lon="5.17036">
        <ele>250.0802002</ele>
        <time>2015-10-10T06:47:29Z</time>
      </trkpt>
      <trkpt lat="44.0515" lon="5.17039">
        <ele>251.0413818</ele>
        <time>2015-10-10T06:47:47Z</time>
      </trkpt>
      <trkpt lat="44.05147" lon="5.17048">
        <ele>250.560791</ele>
        <time>2015-10-10T06:47:58Z</time>
      </trkpt>
      <trkpt lat="44.05146" lon="5.1705">
        <ele>250.560791</ele>
        <time>2015-10-10T06:47:59Z</time>
      </trkpt>
      <trkpt lat="44.0515" lon="5.17066">
        <ele>250.0802002</ele>
        <time>2015-10-10T06:48:07Z</time>
      </trkpt>
      <trkpt lat="44.05165" lon="5.17093">
        <ele>248.6381836</ele>
        <time>2015-10-10T06:48:20Z</time>
      </trkpt>
      <trkpt lat="44.0517" lon="5.17127">
        <ele>250.560791</ele>
        <time>2015-10-10T06:48:34Z</time>
      </trkpt>
      <trkpt lat="44.05171" lon="5.17132">
        <ele>251.5220947</ele>
        <time>2015-10-10T06:48:37Z</time>
      </trkpt>
      <trkpt lat="44.05158" lon="5.17148">
        <ele>254.4060059</ele>
        <time>2015-10-10T06:48:49Z</time>
      </trkpt>
      <trkpt lat="44.05134" lon="5.17174">
        <ele>255.8480225</ele>
        <time>2015-10-10T06:49:08Z</time>
      </trkpt>
      <trkpt lat="44.0511" lon="5.17189">
        <ele>260.1739502</ele>
        <time>2015-10-10T06:49:27Z</time>
      </trkpt>
      <trkpt lat="44.05106" lon="5.17195">
        <ele>260.1739502</ele>
        <time>2015-10-10T06:49:31Z</time>
      </trkpt>
      <trkpt lat="44.05105" lon="5.17204">
        <ele>262.5771484</ele>
        <time>2015-10-10T06:49:41Z</time>
      </trkpt>
      <trkpt lat="44.05103" lon="5.17218">
        <ele>265.9418945</ele>
        <time>2015-10-10T06:49:53Z</time>
      </trkpt>
      <trkpt lat="44.05103" lon="5.17219">
        <ele>267.864502</ele>
        <time>2015-10-10T06:50:00Z</time>
      </trkpt>
      <trkpt lat="44.05102" lon="5.17224">
        <ele>267.864502</ele>
        <time>2015-10-10T06:50:03Z</time>
      </trkpt>
      <trkpt lat="44.05098" lon="5.17238">
        <ele>268.8258057</ele>
        <time>2015-10-10T06:50:15Z</time>
      </trkpt>
      <trkpt lat="44.05095" lon="5.17249">
        <ele>269.7871094</ele>
        <time>2015-10-10T06:50:24Z</time>
      </trkpt>
      <trkpt lat="44.05088" lon="5.17274">
        <ele>272.1904297</ele>
        <time>2015-10-10T06:50:38Z</time>
      </trkpt>
      <trkpt lat="44.05085" lon="5.17305">
        <ele>273.6324463</ele>
        <time>2015-10-10T06:50:57Z</time>
      </trkpt>
      <trkpt lat="44.05078" lon="5.17332">
        <ele>278.4389648</ele>
        <time>2015-10-10T06:51:13Z</time>
      </trkpt>
      <trkpt lat="44.0508" lon="5.17359">
        <ele>276.9970703</ele>
        <time>2015-10-10T06:51:27Z</time>
      </trkpt>
      <trkpt lat="44.0508" lon="5.17363">
        <ele>276.9970703</ele>
        <time>2015-10-10T06:51:29Z</time>
      </trkpt>
      <trkpt lat="44.05071" lon="5.17386">
        <ele>281.322998</ele>
        <time>2015-10-10T06:51:42Z</time>
      </trkpt>
      <trkpt lat="44.05074" lon="5.17417">
        <ele>283.2456055</ele>
        <time>2015-10-10T06:51:56Z</time>
      </trkpt>
      <trkpt lat="44.05071" lon="5.17458">
        <ele>283.7261963</ele>
        <time>2015-10-10T06:52:12Z</time>
      </trkpt>
      <trkpt lat="44.05063" lon="5.17512">
        <ele>284.6876221</ele>
        <time>2015-10-10T06:52:29Z</time>
      </trkpt>
      <trkpt lat="44.05069" lon="5.17542">
        <ele>280.8424072</ele>
        <time>2015-10-10T06:52:40Z</time>
      </trkpt>
      <trkpt lat="44.05068" lon="5.17551">
        <ele>279.8808594</ele>
        <time>2015-10-10T06:52:43Z</time>
      </trkpt>
      <trkpt lat="44.05049" lon="5.17581">
        <ele>284.6876221</ele>
        <time>2015-10-10T06:52:58Z</time>
      </trkpt>
      <trkpt lat="44.05047" lon="5.17583">
        <ele>285.6488037</ele>
        <time>2015-10-10T06:52:59Z</time>
      </trkpt>
      <trkpt lat="44.05038" lon="5.17595">
        <ele>288.532959</ele>
        <time>2015-10-10T06:53:10Z</time>
      </trkpt>
      <trkpt lat="44.05025" lon="5.17612">
        <ele>291.8974609</ele>
        <time>2015-10-10T06:53:23Z</time>
      </trkpt>
      <trkpt lat="44.05009" lon="5.17637">
        <ele>295.2619629</ele>
        <time>2015-10-10T06:53:38Z</time>
      </trkpt>
      <trkpt lat="44.05002" lon="5.17647">
        <ele>296.2235107</ele>
        <time>2015-10-10T06:53:44Z</time>
      </trkpt>
      <trkpt lat="44.04999" lon="5.17653">
        <ele>296.7041016</ele>
        <time>2015-10-10T06:53:47Z</time>
      </trkpt>
      <trkpt lat="44.04993" lon="5.17662">
        <ele>298.626709</ele>
        <time>2015-10-10T06:53:52Z</time>
      </trkpt>
      <trkpt lat="44.0499" lon="5.17669">
        <ele>298.626709</ele>
        <time>2015-10-10T06:53:57Z</time>
      </trkpt>
      <trkpt lat="44.04973" lon="5.17694">
        <ele>301.5106201</ele>
        <time>2015-10-10T06:54:14Z</time>
      </trkpt>
      <trkpt lat="44.04956" lon="5.17719">
        <ele>304.8752441</ele>
        <time>2015-10-10T06:54:31Z</time>
      </trkpt>
      <trkpt lat="44.04948" lon="5.17742">
        <ele>307.7592773</ele>
        <time>2015-10-10T06:54:45Z</time>
      </trkpt>
      <trkpt lat="44.0494" lon="5.17772">
        <ele>309.6818848</ele>
        <time>2015-10-10T06:55:01Z</time>
      </trkpt>
      <trkpt lat="44.04931" lon="5.17796">
        <ele>312.5657959</ele>
        <time>2015-10-10T06:55:14Z</time>
      </trkpt>
      <trkpt lat="44.04927" lon="5.17807">
        <ele>315.9304199</ele>
        <time>2015-10-10T06:55:20Z</time>
      </trkpt>
      <trkpt lat="44.0491" lon="5.17817">
        <ele>314.4884033</ele>
        <time>2015-10-10T06:55:32Z</time>
      </trkpt>
      <trkpt lat="44.0489" lon="5.17824">
        <ele>316.8917236</ele>
        <time>2015-10-10T06:55:48Z</time>
      </trkpt>
      <trkpt lat="44.04878" lon="5.17819">
        <ele>318.3336182</ele>
        <time>2015-10-10T06:55:58Z</time>
      </trkpt>
      <trkpt lat="44.0486" lon="5.17816">
        <ele>318.8143311</ele>
        <time>2015-10-10T06:56:12Z</time>
      </trkpt>
      <trkpt lat="44.04858" lon="5.17815">
        <ele>318.8143311</ele>
        <time>2015-10-10T06:56:13Z</time>
      </trkpt>
      <trkpt lat="44.0485" lon="5.17818">
        <ele>319.2950439</ele>
        <time>2015-10-10T06:56:23Z</time>
      </trkpt>
      <trkpt lat="44.04852" lon="5.17818">
        <ele>316.4110107</ele>
        <time>2015-10-10T06:56:35Z</time>
      </trkpt>
      <trkpt lat="44.0484" lon="5.17812">
        <ele>320.2563477</ele>
        <time>2015-10-10T06:57:43Z</time>
      </trkpt>
      <trkpt lat="44.04834" lon="5.1781">
        <ele>323.1403809</ele>
        <time>2015-10-10T06:57:58Z</time>
      </trkpt>
      <trkpt lat="44.04826" lon="5.17804">
        <ele>324.1015625</ele>
        <time>2015-10-10T06:58:16Z</time>
      </trkpt>
      <trkpt lat="44.04815" lon="5.17798">
        <ele>326.0241699</ele>
        <time>2015-10-10T06:58:26Z</time>
      </trkpt>
      <trkpt lat="44.04797" lon="5.17797">
        <ele>327.4661865</ele>
        <time>2015-10-10T06:58:37Z</time>
      </trkpt>
      <trkpt lat="44.04781" lon="5.17801">
        <ele>330.3502197</ele>
        <time>2015-10-10T06:58:49Z</time>
      </trkpt>
      <trkpt lat="44.0477" lon="5.17804">
        <ele>333.7147217</ele>
        <time>2015-10-10T06:58:56Z</time>
      </trkpt>
      <trkpt lat="44.04752" lon="5.17806">
        <ele>336.598877</ele>
        <time>2015-10-10T06:59:09Z</time>
      </trkpt>
      <trkpt lat="44.0474" lon="5.17808">
        <ele>337.5600586</ele>
        <time>2015-10-10T06:59:21Z</time>
      </trkpt>
      <trkpt lat="44.04737" lon="5.17807">
        <ele>338.0407715</ele>
        <time>2015-10-10T06:59:24Z</time>
      </trkpt>
      <trkpt lat="44.04733" lon="5.17807">
        <ele>337.5600586</ele>
        <time>2015-10-10T06:59:27Z</time>
      </trkpt>
      <trkpt lat="44.04719" lon="5.17809">
        <ele>337.0794678</ele>
        <time>2015-10-10T06:59:38Z</time>
      </trkpt>
      <trkpt lat="44.04697" lon="5.17805">
        <ele>338.0407715</ele>
        <time>2015-10-10T06:59:52Z</time>
      </trkpt>
      <trkpt lat="44.04667" lon="5.17817">
        <ele>341.8859863</ele>
        <time>2015-10-10T07:00:11Z</time>
      </trkpt>
      <trkpt lat="44.04665" lon="5.17814">
        <ele>341.8859863</ele>
        <time>2015-10-10T07:00:18Z</time>
      </trkpt>
      <trkpt lat="44.04654" lon="5.17814">
        <ele>344.7700195</ele>
        <time>2015-10-10T07:00:34Z</time>
      </trkpt>
      <trkpt lat="44.04652" lon="5.17816">
        <ele>344.7700195</ele>
        <time>2015-10-10T07:00:39Z</time>
      </trkpt>
      <trkpt lat="44.04648" lon="5.17812">
        <ele>346.692627</ele>
        <time>2015-10-10T07:00:50Z</time>
      </trkpt>
      <trkpt lat="44.04638" lon="5.17802">
        <ele>348.6152344</ele>
        <time>2015-10-10T07:01:01Z</time>
      </trkpt>
      <trkpt lat="44.04634" lon="5.17799">
        <ele>349.5765381</ele>
        <time>2015-10-10T07:01:08Z</time>
      </trkpt>
      <trkpt lat="44.04633" lon="5.17795">
        <ele>349.0958252</ele>
        <time>2015-10-10T07:01:19Z</time>
      </trkpt>
      <trkpt lat="44.04631" lon="5.17794">
        <ele>348.6152344</ele>
        <time>2015-10-10T07:01:38Z</time>
      </trkpt>
      <trkpt lat="44.04631" lon="5.17793">
        <ele>348.6152344</ele>
        <time>2015-10-10T07:02:54Z</time>
      </trkpt>
      <trkpt lat="44.0465" lon="5.17788">
        <ele>352.9411621</ele>
        <time>2015-10-10T07:03:04Z</time>
      </trkpt>
      <trkpt lat="44.04651" lon="5.17788">
        <ele>352.9411621</ele>
        <time>2015-10-10T07:03:05Z</time>
      </trkpt>
      <trkpt lat="44.04657" lon="5.17783">
        <ele>354.3831787</ele>
        <time>2015-10-10T07:03:16Z</time>
      </trkpt>
      <trkpt lat="44.04662" lon="5.17776">
        <ele>354.8637695</ele>
        <time>2015-10-10T07:03:28Z</time>
      </trkpt>
      <trkpt lat="44.04664" lon="5.17774">
        <ele>355.3444824</ele>
        <time>2015-10-10T07:03:40Z</time>
      </trkpt>
      <trkpt lat="44.04677" lon="5.17777">
        <ele>355.8251953</ele>
        <time>2015-10-10T07:03:47Z</time>
      </trkpt>
      <trkpt lat="44.04687" lon="5.17774">
        <ele>356.786377</ele>
        <time>2015-10-10T07:03:52Z</time>
      </trkpt>
      <trkpt lat="44.04704" lon="5.17759">
        <ele>356.3057861</ele>
        <time>2015-10-10T07:04:04Z</time>
      </trkpt>
      <trkpt lat="44.04709" lon="5.17754">
        <ele>357.2670898</ele>
        <time>2015-10-10T07:04:13Z</time>
      </trkpt>
      <trkpt lat="44.04714" lon="5.17751">
        <ele>357.2670898</ele>
        <time>2015-10-10T07:04:21Z</time>
      </trkpt>
      <trkpt lat="44.04715" lon="5.17748">
        <ele>357.2670898</ele>
        <time>2015-10-10T07:04:23Z</time>
      </trkpt>
      <trkpt lat="44.04723" lon="5.17742">
        <ele>358.7089844</ele>
        <time>2015-10-10T07:04:29Z</time>
      </trkpt>
      <trkpt lat="44.04732" lon="5.17727">
        <ele>362.0737305</ele>
        <time>2015-10-10T07:04:41Z</time>
      </trkpt>
      <trkpt lat="44.04732" lon="5.17725">
        <ele>361.5931396</ele>
        <time>2015-10-10T07:04:43Z</time>
      </trkpt>
      <trkpt lat="44.04731" lon="5.17721">
        <ele>361.5931396</ele>
        <time>2015-10-10T07:04:45Z</time>
      </trkpt>
      <trkpt lat="44.04736" lon="5.177">
        <ele>361.1124268</ele>
        <time>2015-10-10T07:04:51Z</time>
      </trkpt>
      <trkpt lat="44.04729" lon="5.17673">
        <ele>360.6317139</ele>
        <time>2015-10-10T07:04:57Z</time>
      </trkpt>
      <trkpt lat="44.04724" lon="5.17666">
        <ele>360.151123</ele>
        <time>2015-10-10T07:04:59Z</time>
      </trkpt>
      <trkpt lat="44.04719" lon="5.17642">
        <ele>359.1896973</ele>
        <time>2015-10-10T07:05:03Z</time>
      </trkpt>
      <trkpt lat="44.04709" lon="5.17623">
        <ele>356.3057861</ele>
        <time>2015-10-10T07:05:07Z</time>
      </trkpt>
      <trkpt lat="44.04679" lon="5.17587">
        <ele>351.9798584</ele>
        <time>2015-10-10T07:05:16Z</time>
      </trkpt>
      <trkpt lat="44.04678" lon="5.17576">
        <ele>351.4991455</ele>
        <time>2015-10-10T07:05:19Z</time>
      </trkpt>
      <trkpt lat="44.04669" lon="5.17565">
        <ele>348.6152344</ele>
        <time>2015-10-10T07:05:23Z</time>
      </trkpt>
      <trkpt lat="44.04656" lon="5.17535">
        <ele>344.7700195</ele>
        <time>2015-10-10T07:05:31Z</time>
      </trkpt>
      <trkpt lat="44.04658" lon="5.17523">
        <ele>342.84729</ele>
        <time>2015-10-10T07:05:37Z</time>
      </trkpt>
      <trkpt lat="44.04658" lon="5.17523">
        <ele>342.3666992</ele>
        <time>2015-10-10T07:05:39Z</time>
      </trkpt>
      <trkpt lat="44.04664" lon="5.17485">
        <ele>338.5214844</ele>
        <time>2015-10-10T07:05:50Z</time>
      </trkpt>
      <trkpt lat="44.04657" lon="5.17469">
        <ele>338.5214844</ele>
        <time>2015-10-10T07:05:57Z</time>
      </trkpt>
      <trkpt lat="44.04654" lon="5.17437">
        <ele>334.6761475</ele>
        <time>2015-10-10T07:06:05Z</time>
      </trkpt>
      <trkpt lat="44.04657" lon="5.17415">
        <ele>333.7147217</ele>
        <time>2015-10-10T07:06:12Z</time>
      </trkpt>
      <trkpt lat="44.04655" lon="5.1741">
        <ele>333.7147217</ele>
        <time>2015-10-10T07:06:14Z</time>
      </trkpt>
      <trkpt lat="44.04653" lon="5.17388">
        <ele>332.75354</ele>
        <time>2015-10-10T07:06:19Z</time>
      </trkpt>
      <trkpt lat="44.04655" lon="5.1738">
        <ele>332.75354</ele>
        <time>2015-10-10T07:06:21Z</time>
      </trkpt>
      <trkpt lat="44.04656" lon="5.17368">
        <ele>332.75354</ele>
        <time>2015-10-10T07:06:24Z</time>
      </trkpt>
      <trkpt lat="44.04662" lon="5.17319">
        <ele>332.75354</ele>
        <time>2015-10-10T07:06:35Z</time>
      </trkpt>
      <trkpt lat="44.04662" lon="5.17313">
        <ele>332.75354</ele>
        <time>2015-10-10T07:06:36Z</time>
      </trkpt>
      <trkpt lat="44.04667" lon="5.17298">
        <ele>332.75354</ele>
        <time>2015-10-10T07:06:39Z</time>
      </trkpt>
      <trkpt lat="44.04665" lon="5.17288">
        <ele>331.3115234</ele>
        <time>2015-10-10T07:06:43Z</time>
      </trkpt>
      <trkpt lat="44.04661" lon="5.17285">
        <ele>330.8309326</ele>
        <time>2015-10-10T07:06:45Z</time>
      </trkpt>
      <trkpt lat="44.04643" lon="5.17281">
        <ele>329.8695068</ele>
        <time>2015-10-10T07:06:51Z</time>
      </trkpt>
      <trkpt lat="44.0464" lon="5.17273">
        <ele>329.388916</ele>
        <time>2015-10-10T07:06:54Z</time>
      </trkpt>
      <trkpt lat="44.04642" lon="5.17267">
        <ele>330.3502197</ele>
        <time>2015-10-10T07:06:56Z</time>
      </trkpt>
      <trkpt lat="44.04635" lon="5.17258">
        <ele>330.3502197</ele>
        <time>2015-10-10T07:07:00Z</time>
      </trkpt>
      <trkpt lat="44.04631" lon="5.1725">
        <ele>329.388916</ele>
        <time>2015-10-10T07:07:02Z</time>
      </trkpt>
      <trkpt lat="44.04631" lon="5.17236">
        <ele>329.8695068</ele>
        <time>2015-10-10T07:07:08Z</time>
      </trkpt>
      <trkpt lat="44.04647" lon="5.17196">
        <ele>330.3502197</ele>
        <time>2015-10-10T07:07:18Z</time>
      </trkpt>
      <trkpt lat="44.04652" lon="5.17166">
        <ele>332.75354</ele>
        <time>2015-10-10T07:07:26Z</time>
      </trkpt>
      <trkpt lat="44.04652" lon="5.17163">
        <ele>333.2341309</ele>
        <time>2015-10-10T07:07:27Z</time>
      </trkpt>
      <trkpt lat="44.04645" lon="5.17157">
        <ele>331.7921143</ele>
        <time>2015-10-10T07:07:31Z</time>
      </trkpt>
      <trkpt lat="44.04641" lon="5.17148">
        <ele>330.8309326</ele>
        <time>2015-10-10T07:07:34Z</time>
      </trkpt>
      <trkpt lat="44.0463" lon="5.17146">
        <ele>330.8309326</ele>
        <time>2015-10-10T07:07:38Z</time>
      </trkpt>
      <trkpt lat="44.04619" lon="5.17136">
        <ele>331.3115234</ele>
        <time>2015-10-10T07:07:44Z</time>
      </trkpt>
      <trkpt lat="44.04618" lon="5.1712">
        <ele>331.3115234</ele>
        <time>2015-10-10T07:07:48Z</time>
      </trkpt>
      <trkpt lat="44.0461" lon="5.17108">
        <ele>331.7921143</ele>
        <time>2015-10-10T07:07:54Z</time>
      </trkpt>
      <trkpt lat="44.04592" lon="5.17085">
        <ele>327.9467773</ele>
        <time>2015-10-10T07:08:02Z</time>
      </trkpt>
      <trkpt lat="44.04585" lon="5.1708">
        <ele>326.0241699</ele>
        <time>2015-10-10T07:08:05Z</time>
      </trkpt>
      <trkpt lat="44.04566" lon="5.17049">
        <ele>316.8917236</ele>
        <time>2015-10-10T07:08:16Z</time>
      </trkpt>
      <trkpt lat="44.04555" lon="5.17032">
        <ele>310.6430664</ele>
        <time>2015-10-10T07:08:25Z</time>
      </trkpt>
      <trkpt lat="44.04551" lon="5.17029">
        <ele>310.1624756</ele>
        <time>2015-10-10T07:08:37Z</time>
      </trkpt>
      <trkpt lat="44.04551" lon="5.17028">
        <ele>310.1624756</ele>
        <time>2015-10-10T07:08:39Z</time>
      </trkpt>
      <trkpt lat="44.04533" lon="5.1701">
        <ele>304.8752441</ele>
        <time>2015-10-10T07:08:49Z</time>
      </trkpt>
      <trkpt lat="44.04512" lon="5.16988">
        <ele>300.5493164</ele>
        <time>2015-10-10T07:08:59Z</time>
      </trkpt>
      <trkpt lat="44.04506" lon="5.16982">
        <ele>300.5493164</ele>
        <time>2015-10-10T07:09:02Z</time>
      </trkpt>
      <trkpt lat="44.04506" lon="5.16967">
        <ele>300.5493164</ele>
        <time>2015-10-10T07:09:07Z</time>
      </trkpt>
      <trkpt lat="44.04509" lon="5.1696">
        <ele>301.0299072</ele>
        <time>2015-10-10T07:09:10Z</time>
      </trkpt>
      <trkpt lat="44.04528" lon="5.16964">
        <ele>301.991333</ele>
        <time>2015-10-10T07:09:21Z</time>
      </trkpt>
      <trkpt lat="44.04555" lon="5.16952">
        <ele>300.0687256</ele>
        <time>2015-10-10T07:09:35Z</time>
      </trkpt>
      <trkpt lat="44.04553" lon="5.16955">
        <ele>300.5493164</ele>
        <time>2015-10-10T07:09:46Z</time>
      </trkpt>
      <trkpt lat="44.04549" lon="5.1695">
        <ele>297.6654053</ele>
        <time>2015-10-10T07:09:58Z</time>
      </trkpt>
      <trkpt lat="44.04551" lon="5.16928">
        <ele>292.8587646</ele>
        <time>2015-10-10T07:10:07Z</time>
      </trkpt>
      <trkpt lat="44.04563" lon="5.16883">
        <ele>284.2069092</ele>
        <time>2015-10-10T07:10:18Z</time>
      </trkpt>
      <trkpt lat="44.04563" lon="5.16865">
        <ele>280.8424072</ele>
        <time>2015-10-10T07:10:21Z</time>
      </trkpt>
      <trkpt lat="44.04574" lon="5.16839">
        <ele>276.5163574</ele>
        <time>2015-10-10T07:10:26Z</time>
      </trkpt>
      <trkpt lat="44.04592" lon="5.16814">
        <ele>275.0744629</ele>
        <time>2015-10-10T07:10:33Z</time>
      </trkpt>
      <trkpt lat="44.04592" lon="5.16814">
        <ele>274.59375</ele>
        <time>2015-10-10T07:10:38Z</time>
      </trkpt>
      <trkpt lat="44.04601" lon="5.16814">
        <ele>275.5550537</ele>
        <time>2015-10-10T07:10:43Z</time>
      </trkpt>
      <trkpt lat="44.04627" lon="5.16794">
        <ele>275.0744629</ele>
        <time>2015-10-10T07:10:55Z</time>
      </trkpt>
      <trkpt lat="44.04659" lon="5.16768">
        <ele>276.9970703</ele>
        <time>2015-10-10T07:11:08Z</time>
      </trkpt>
      <trkpt lat="44.04695" lon="5.16737">
        <ele>280.3616943</ele>
        <time>2015-10-10T07:11:19Z</time>
      </trkpt>
      <trkpt lat="44.04735" lon="5.16705">
        <ele>281.322998</ele>
        <time>2015-10-10T07:11:30Z</time>
      </trkpt>
      <trkpt lat="44.04751" lon="5.16696">
        <ele>281.8035889</ele>
        <time>2015-10-10T07:11:34Z</time>
      </trkpt>
      <trkpt lat="44.04776" lon="5.1668">
        <ele>279.8808594</ele>
        <time>2015-10-10T07:11:40Z</time>
      </trkpt>
      <trkpt lat="44.04782" lon="5.16653">
        <ele>280.8424072</ele>
        <time>2015-10-10T07:11:46Z</time>
      </trkpt>
      <trkpt lat="44.04779" lon="5.16649">
        <ele>280.8424072</ele>
        <time>2015-10-10T07:11:47Z</time>
      </trkpt>
      <trkpt lat="44.04757" lon="5.16612">
        <ele>277.4776611</ele>
        <time>2015-10-10T07:11:57Z</time>
      </trkpt>
      <trkpt lat="44.0475" lon="5.16601">
        <ele>275.0744629</ele>
        <time>2015-10-10T07:12:00Z</time>
      </trkpt>
      <trkpt lat="44.04728" lon="5.16598">
        <ele>274.1130371</ele>
        <time>2015-10-10T07:12:07Z</time>
      </trkpt>
      <trkpt lat="44.04713" lon="5.16604">
        <ele>272.6711426</ele>
        <time>2015-10-10T07:12:13Z</time>
      </trkpt>
      <trkpt lat="44.04707" lon="5.16599">
        <ele>269.7871094</ele>
        <time>2015-10-10T07:12:16Z</time>
      </trkpt>
      <trkpt lat="44.04695" lon="5.16599">
        <ele>266.4224854</ele>
        <time>2015-10-10T07:12:21Z</time>
      </trkpt>
      <trkpt lat="44.04692" lon="5.16595">
        <ele>265.9418945</ele>
        <time>2015-10-10T07:12:25Z</time>
      </trkpt>
      <trkpt lat="44.04683" lon="5.16582">
        <ele>265.4613037</ele>
        <time>2015-10-10T07:12:31Z</time>
      </trkpt>
      <trkpt lat="44.04674" lon="5.16559">
        <ele>264.0192871</ele>
        <time>2015-10-10T07:12:37Z</time>
      </trkpt>
      <trkpt lat="44.04651" lon="5.1654">
        <ele>261.6159668</ele>
        <time>2015-10-10T07:12:43Z</time>
      </trkpt>
      <trkpt lat="44.04624" lon="5.16524">
        <ele>257.770752</ele>
        <time>2015-10-10T07:12:50Z</time>
      </trkpt>
      <trkpt lat="44.04576" lon="5.16526">
        <ele>257.770752</ele>
        <time>2015-10-10T07:13:01Z</time>
      </trkpt>
      <trkpt lat="44.04563" lon="5.16515">
        <ele>255.3673096</ele>
        <time>2015-10-10T07:13:06Z</time>
      </trkpt>
      <trkpt lat="44.04562" lon="5.16506">
        <ele>254.8865967</ele>
        <time>2015-10-10T07:13:10Z</time>
      </trkpt>
      <trkpt lat="44.04559" lon="5.16498">
        <ele>255.3673096</ele>
        <time>2015-10-10T07:13:15Z</time>
      </trkpt>
      <trkpt lat="44.0455" lon="5.16496">
        <ele>253.4447021</ele>
        <time>2015-10-10T07:13:20Z</time>
      </trkpt>
      <trkpt lat="44.04542" lon="5.16487">
        <ele>254.8865967</ele>
        <time>2015-10-10T07:13:24Z</time>
      </trkpt>
      <trkpt lat="44.04515" lon="5.16463">
        <ele>252.4833984</ele>
        <time>2015-10-10T07:13:35Z</time>
      </trkpt>
      <trkpt lat="44.04513" lon="5.16454">
        <ele>251.0413818</ele>
        <time>2015-10-10T07:13:37Z</time>
      </trkpt>
      <trkpt lat="44.04498" lon="5.1644">
        <ele>251.0413818</ele>
        <time>2015-10-10T07:13:42Z</time>
      </trkpt>
      <trkpt lat="44.04485" lon="5.16431">
        <ele>249.1187744</ele>
        <time>2015-10-10T07:13:48Z</time>
      </trkpt>
      <trkpt lat="44.04479" lon="5.16431">
        <ele>247.6767578</ele>
        <time>2015-10-10T07:13:50Z</time>
      </trkpt>
      <trkpt lat="44.04471" lon="5.16423">
        <ele>247.1960449</ele>
        <time>2015-10-10T07:13:53Z</time>
      </trkpt>
      <trkpt lat="44.04454" lon="5.16422">
        <ele>250.0802002</ele>
        <time>2015-10-10T07:13:58Z</time>
      </trkpt>
      <trkpt lat="44.0444" lon="5.16441">
        <ele>252.4833984</ele>
        <time>2015-10-10T07:14:04Z</time>
      </trkpt>
      <trkpt lat="44.04432" lon="5.16439">
        <ele>251.5220947</ele>
        <time>2015-10-10T07:14:07Z</time>
      </trkpt>
      <trkpt lat="44.04424" lon="5.1644">
        <ele>251.0413818</ele>
        <time>2015-10-10T07:14:09Z</time>
      </trkpt>
      <trkpt lat="44.04399" lon="5.16444">
        <ele>251.5220947</ele>
        <time>2015-10-10T07:14:15Z</time>
      </trkpt>
      <trkpt lat="44.04386" lon="5.16437">
        <ele>250.0802002</ele>
        <time>2015-10-10T07:14:18Z</time>
      </trkpt>
      <trkpt lat="44.04354" lon="5.16442">
        <ele>249.1187744</ele>
        <time>2015-10-10T07:14:27Z</time>
      </trkpt>
      <trkpt lat="44.04332" lon="5.16462">
        <ele>250.0802002</ele>
        <time>2015-10-10T07:14:34Z</time>
      </trkpt>
      <trkpt lat="44.04324" lon="5.16476">
        <ele>250.560791</ele>
        <time>2015-10-10T07:14:37Z</time>
      </trkpt>
      <trkpt lat="44.04314" lon="5.16486">
        <ele>251.0413818</ele>
        <time>2015-10-10T07:14:40Z</time>
      </trkpt>
      <trkpt lat="44.04297" lon="5.16522">
        <ele>250.0802002</ele>
        <time>2015-10-10T07:14:49Z</time>
      </trkpt>
      <trkpt lat="44.04279" lon="5.16554">
        <ele>249.1187744</ele>
        <time>2015-10-10T07:14:59Z</time>
      </trkpt>
      <trkpt lat="44.04268" lon="5.16561">
        <ele>249.1187744</ele>
        <time>2015-10-10T07:15:02Z</time>
      </trkpt>
      <trkpt lat="44.04225" lon="5.16608">
        <ele>248.6381836</ele>
        <time>2015-10-10T07:15:15Z</time>
      </trkpt>
      <trkpt lat="44.04177" lon="5.16661">
        <ele>249.5994873</ele>
        <time>2015-10-10T07:15:31Z</time>
      </trkpt>
      <trkpt lat="44.04148" lon="5.16691">
        <ele>250.560791</ele>
        <time>2015-10-10T07:15:40Z</time>
      </trkpt>
      <trkpt lat="44.04102" lon="5.16722">
        <ele>248.6381836</ele>
        <time>2015-10-10T07:15:53Z</time>
      </trkpt>
      <trkpt lat="44.04063" lon="5.16746">
        <ele>253.925415</ele>
        <time>2015-10-10T07:16:05Z</time>
      </trkpt>
      <trkpt lat="44.04047" lon="5.16756">
        <ele>257.2900391</ele>
        <time>2015-10-10T07:16:15Z</time>
      </trkpt>
      <trkpt lat="44.0404" lon="5.16764">
        <ele>255.8480225</ele>
        <time>2015-10-10T07:17:13Z</time>
      </trkpt>
      <trkpt lat="44.04039" lon="5.1677">
        <ele>252.4833984</ele>
        <time>2015-10-10T07:17:25Z</time>
      </trkpt>
      <trkpt lat="44.04036" lon="5.16767">
        <ele>251.5220947</ele>
        <time>2015-10-10T07:17:31Z</time>
      </trkpt>
      <trkpt lat="44.04031" lon="5.16758">
        <ele>249.1187744</ele>
        <time>2015-10-10T07:17:36Z</time>
      </trkpt>
      <trkpt lat="44.04007" lon="5.16768">
        <ele>246.7154541</ele>
        <time>2015-10-10T07:17:47Z</time>
      </trkpt>
      <trkpt lat="44.03982" lon="5.16769">
        <ele>243.831543</ele>
        <time>2015-10-10T07:17:57Z</time>
      </trkpt>
      <trkpt lat="44.03967" lon="5.16763">
        <ele>242.8702393</ele>
        <time>2015-10-10T07:18:03Z</time>
      </trkpt>
      <trkpt lat="44.03957" lon="5.16766">
        <ele>241.9089355</ele>
        <time>2015-10-10T07:18:07Z</time>
      </trkpt>
      <trkpt lat="44.03944" lon="5.16762">
        <ele>240.467041</ele>
        <time>2015-10-10T07:18:16Z</time>
      </trkpt>
      <trkpt lat="44.03944" lon="5.16762">
        <ele>240.9476318</ele>
        <time>2015-10-10T07:18:23Z</time>
      </trkpt>
      <trkpt lat="44.03931" lon="5.16764">
        <ele>240.467041</ele>
        <time>2015-10-10T07:18:31Z</time>
      </trkpt>
      <trkpt lat="44.03902" lon="5.16739">
        <ele>245.7541504</ele>
        <time>2015-10-10T07:18:46Z</time>
      </trkpt>
      <trkpt lat="44.0388" lon="5.16713">
        <ele>243.831543</ele>
        <time>2015-10-10T07:18:59Z</time>
      </trkpt>
      <trkpt lat="44.0386" lon="5.16701">
        <ele>246.7154541</ele>
        <time>2015-10-10T07:19:09Z</time>
      </trkpt>
      <trkpt lat="44.0384" lon="5.16694">
        <ele>250.0802002</ele>
        <time>2015-10-10T07:19:20Z</time>
      </trkpt>
      <trkpt lat="44.03837" lon="5.167">
        <ele>250.560791</ele>
        <time>2015-10-10T07:19:36Z</time>
      </trkpt>
      <trkpt lat="44.03835" lon="5.16706">
        <ele>251.5220947</ele>
        <time>2015-10-10T07:19:52Z</time>
      </trkpt>
      <trkpt lat="44.03835" lon="5.16706">
        <ele>251.5220947</ele>
        <time>2015-10-10T07:19:54Z</time>
      </trkpt>
      <trkpt lat="44.03822" lon="5.16722">
        <ele>254.8865967</ele>
        <time>2015-10-10T07:20:07Z</time>
      </trkpt>
      <trkpt lat="44.0382" lon="5.16725">
        <ele>255.3673096</ele>
        <time>2015-10-10T07:20:09Z</time>
      </trkpt>
      <trkpt lat="44.03816" lon="5.1673">
        <ele>257.770752</ele>
        <time>2015-10-10T07:20:14Z</time>
      </trkpt>
      <trkpt lat="44.03801" lon="5.16754">
        <ele>262.5771484</ele>
        <time>2015-10-10T07:20:27Z</time>
      </trkpt>
      <trkpt lat="44.03796" lon="5.16766">
        <ele>264.4998779</ele>
        <time>2015-10-10T07:20:35Z</time>
      </trkpt>
      <trkpt lat="44.03789" lon="5.16787">
        <ele>265.4613037</ele>
        <time>2015-10-10T07:20:48Z</time>
      </trkpt>
      <trkpt lat="44.03784" lon="5.16796">
        <ele>264.4998779</ele>
        <time>2015-10-10T07:20:54Z</time>
      </trkpt>
      <trkpt lat="44.03777" lon="5.16816">
        <ele>264.4998779</ele>
        <time>2015-10-10T07:21:06Z</time>
      </trkpt>
      <trkpt lat="44.03773" lon="5.16825">
        <ele>264.9805908</ele>
        <time>2015-10-10T07:21:12Z</time>
      </trkpt>
      <trkpt lat="44.03768" lon="5.16838">
        <ele>264.9805908</ele>
        <time>2015-10-10T07:21:19Z</time>
      </trkpt>
      <trkpt lat="44.03766" lon="5.16842">
        <ele>264.9805908</ele>
        <time>2015-10-10T07:21:21Z</time>
      </trkpt>
      <trkpt lat="44.03758" lon="5.1686">
        <ele>265.9418945</ele>
        <time>2015-10-10T07:21:32Z</time>
      </trkpt>
      <trkpt lat="44.03754" lon="5.16869">
        <ele>266.4224854</ele>
        <time>2015-10-10T07:21:37Z</time>
      </trkpt>
      <trkpt lat="44.03757" lon="5.16878">
        <ele>268.3450928</ele>
        <time>2015-10-10T07:21:50Z</time>
      </trkpt>
      <trkpt lat="44.03779" lon="5.16893">
        <ele>269.7871094</ele>
        <time>2015-10-10T07:22:06Z</time>
      </trkpt>
      <trkpt lat="44.03806" lon="5.16894">
        <ele>274.1130371</ele>
        <time>2015-10-10T07:22:22Z</time>
      </trkpt>
      <trkpt lat="44.03836" lon="5.16895">
        <ele>277.958252</ele>
        <time>2015-10-10T07:22:36Z</time>
      </trkpt>
      <trkpt lat="44.03872" lon="5.16894">
        <ele>282.7650146</ele>
        <time>2015-10-10T07:22:50Z</time>
      </trkpt>
      <trkpt lat="44.03902" lon="5.16901">
        <ele>282.7650146</ele>
        <time>2015-10-10T07:23:02Z</time>
      </trkpt>
      <trkpt lat="44.03919" lon="5.16909">
        <ele>285.1682129</ele>
        <time>2015-10-10T07:23:10Z</time>
      </trkpt>
      <trkpt lat="44.03931" lon="5.16921">
        <ele>283.7261963</ele>
        <time>2015-10-10T07:23:17Z</time>
      </trkpt>
      <trkpt lat="44.03951" lon="5.16942">
        <ele>280.3616943</ele>
        <time>2015-10-10T07:23:30Z</time>
      </trkpt>
      <trkpt lat="44.03967" lon="5.16953">
        <ele>281.8035889</ele>
        <time>2015-10-10T07:23:41Z</time>
      </trkpt>
      <trkpt lat="44.03986" lon="5.16958">
        <ele>283.7261963</ele>
        <time>2015-10-10T07:23:53Z</time>
      </trkpt>
      <trkpt lat="44.04" lon="5.16961">
        <ele>283.2456055</ele>
        <time>2015-10-10T07:24:02Z</time>
      </trkpt>
      <trkpt lat="44.0401" lon="5.16963">
        <ele>285.1682129</ele>
        <time>2015-10-10T07:24:09Z</time>
      </trkpt>
      <trkpt lat="44.04007" lon="5.16984">
        <ele>288.0522461</ele>
        <time>2015-10-10T07:24:20Z</time>
      </trkpt>
      <trkpt lat="44.04001" lon="5.1699">
        <ele>289.0135498</ele>
        <time>2015-10-10T07:24:30Z</time>
      </trkpt>
      <trkpt lat="44.04001" lon="5.16993">
        <ele>289.0135498</ele>
        <time>2015-10-10T07:24:40Z</time>
      </trkpt>
      <trkpt lat="44.03995" lon="5.17005">
        <ele>289.0135498</ele>
        <time>2015-10-10T07:24:53Z</time>
      </trkpt>
      <trkpt lat="44.03991" lon="5.17017">
        <ele>289.0135498</ele>
        <time>2015-10-10T07:25:08Z</time>
      </trkpt>
      <trkpt lat="44.03996" lon="5.17021">
        <ele>290.4555664</ele>
        <time>2015-10-10T07:25:15Z</time>
      </trkpt>
      <trkpt lat="44.04013" lon="5.17038">
        <ele>291.416748</ele>
        <time>2015-10-10T07:25:26Z</time>
      </trkpt>
      <trkpt lat="44.04045" lon="5.17064">
        <ele>296.2235107</ele>
        <time>2015-10-10T07:25:42Z</time>
      </trkpt>
      <trkpt lat="44.04068" lon="5.17083">
        <ele>296.2235107</ele>
        <time>2015-10-10T07:25:55Z</time>
      </trkpt>
      <trkpt lat="44.04088" lon="5.17094">
        <ele>297.1846924</ele>
        <time>2015-10-10T07:26:05Z</time>
      </trkpt>
      <trkpt lat="44.04129" lon="5.17119">
        <ele>297.6654053</ele>
        <time>2015-10-10T07:26:22Z</time>
      </trkpt>
      <trkpt lat="44.04186" lon="5.17153">
        <ele>296.7041016</ele>
        <time>2015-10-10T07:26:42Z</time>
      </trkpt>
      <trkpt lat="44.04224" lon="5.17175">
        <ele>297.6654053</ele>
        <time>2015-10-10T07:26:57Z</time>
      </trkpt>
      <trkpt lat="44.04241" lon="5.17197">
        <ele>299.1072998</ele>
        <time>2015-10-10T07:27:07Z</time>
      </trkpt>
      <trkpt lat="44.04265" lon="5.17224">
        <ele>301.0299072</ele>
        <time>2015-10-10T07:27:21Z</time>
      </trkpt>
      <trkpt lat="44.04292" lon="5.17254">
        <ele>301.0299072</ele>
        <time>2015-10-10T07:27:35Z</time>
      </trkpt>
      <trkpt lat="44.04305" lon="5.17277">
        <ele>305.8366699</ele>
        <time>2015-10-10T07:27:47Z</time>
      </trkpt>
      <trkpt lat="44.04323" lon="5.17311">
        <ele>312.0852051</ele>
        <time>2015-10-10T07:28:07Z</time>
      </trkpt>
      <trkpt lat="44.04331" lon="5.17339">
        <ele>313.5272217</ele>
        <time>2015-10-10T07:28:22Z</time>
      </trkpt>
      <trkpt lat="44.0432" lon="5.17372">
        <ele>311.1237793</ele>
        <time>2015-10-10T07:28:37Z</time>
      </trkpt>
      <trkpt lat="44.04309" lon="5.17412">
        <ele>311.1237793</ele>
        <time>2015-10-10T07:28:53Z</time>
      </trkpt>
      <trkpt lat="44.04317" lon="5.17445">
        <ele>313.0465088</ele>
        <time>2015-10-10T07:29:07Z</time>
      </trkpt>
      <trkpt lat="44.04335" lon="5.17479">
        <ele>314.9691162</ele>
        <time>2015-10-10T07:29:22Z</time>
      </trkpt>
      <trkpt lat="44.04369" lon="5.17496">
        <ele>319.7756348</ele>
        <time>2015-10-10T07:29:38Z</time>
      </trkpt>
      <trkpt lat="44.04398" lon="5.17503">
        <ele>320.2563477</ele>
        <time>2015-10-10T07:29:53Z</time>
      </trkpt>
      <trkpt lat="44.04409" lon="5.17505">
        <ele>320.7370605</ele>
        <time>2015-10-10T07:29:59Z</time>
      </trkpt>
      <trkpt lat="44.04432" lon="5.17515">
        <ele>322.659668</ele>
        <time>2015-10-10T07:30:11Z</time>
      </trkpt>
      <trkpt lat="44.04434" lon="5.17543">
        <ele>322.659668</ele>
        <time>2015-10-10T07:30:22Z</time>
      </trkpt>
      <trkpt lat="44.04435" lon="5.17557">
        <ele>324.1015625</ele>
        <time>2015-10-10T07:30:27Z</time>
      </trkpt>
      <trkpt lat="44.04451" lon="5.17581">
        <ele>330.8309326</ele>
        <time>2015-10-10T07:30:40Z</time>
      </trkpt>
      <trkpt lat="44.04472" lon="5.17598">
        <ele>337.5600586</ele>
        <time>2015-10-10T07:30:54Z</time>
      </trkpt>
      <trkpt lat="44.04491" lon="5.17624">
        <ele>337.5600586</ele>
        <time>2015-10-10T07:31:10Z</time>
      </trkpt>
      <trkpt lat="44.04511" lon="5.17646">
        <ele>341.4052734</ele>
        <time>2015-10-10T07:31:28Z</time>
      </trkpt>
      <trkpt lat="44.04529" lon="5.17665">
        <ele>345.2506104</ele>
        <time>2015-10-10T07:31:45Z</time>
      </trkpt>
      <trkpt lat="44.04528" lon="5.1768">
        <ele>345.7313232</ele>
        <time>2015-10-10T07:31:52Z</time>
      </trkpt>
      <trkpt lat="44.04546" lon="5.17706">
        <ele>346.692627</ele>
        <time>2015-10-10T07:32:06Z</time>
      </trkpt>
      <trkpt lat="44.04565" lon="5.17738">
        <ele>345.2506104</ele>
        <time>2015-10-10T07:32:20Z</time>
      </trkpt>
      <trkpt lat="44.04569" lon="5.17757">
        <ele>345.7313232</ele>
        <time>2015-10-10T07:32:31Z</time>
      </trkpt>
      <trkpt lat="44.04569" lon="5.17758">
        <ele>345.2506104</ele>
        <time>2015-10-10T07:33:00Z</time>
      </trkpt>
      <trkpt lat="44.0457" lon="5.17764">
        <ele>347.6539307</ele>
        <time>2015-10-10T07:33:04Z</time>
      </trkpt>
      <trkpt lat="44.04572" lon="5.17777">
        <ele>349.0958252</ele>
        <time>2015-10-10T07:33:11Z</time>
      </trkpt>
      <trkpt lat="44.04578" lon="5.17784">
        <ele>349.5765381</ele>
        <time>2015-10-10T07:33:15Z</time>
      </trkpt>
      <trkpt lat="44.04591" lon="5.17809">
        <ele>351.0184326</ele>
        <time>2015-10-10T07:33:24Z</time>
      </trkpt>
      <trkpt lat="44.04588" lon="5.17821">
        <ele>353.9025879</ele>
        <time>2015-10-10T07:33:32Z</time>
      </trkpt>
      <trkpt lat="44.0459" lon="5.1783">
        <ele>354.3831787</ele>
        <time>2015-10-10T07:33:37Z</time>
      </trkpt>
      <trkpt lat="44.04588" lon="5.17844">
        <ele>354.3831787</ele>
        <time>2015-10-10T07:33:46Z</time>
      </trkpt>
      <trkpt lat="44.04587" lon="5.17864">
        <ele>355.8251953</ele>
        <time>2015-10-10T07:33:59Z</time>
      </trkpt>
      <trkpt lat="44.04586" lon="5.17866">
        <ele>355.3444824</ele>
        <time>2015-10-10T07:34:16Z</time>
      </trkpt>
      <trkpt lat="44.04581" lon="5.17872">
        <ele>356.786377</ele>
        <time>2015-10-10T07:34:28Z</time>
      </trkpt>
      <trkpt lat="44.04578" lon="5.17876">
        <ele>357.2670898</ele>
        <time>2015-10-10T07:34:38Z</time>
      </trkpt>
      <trkpt lat="44.04569" lon="5.17878">
        <ele>360.6317139</ele>
        <time>2015-10-10T07:34:53Z</time>
      </trkpt>
      <trkpt lat="44.04559" lon="5.17886">
        <ele>362.5543213</ele>
        <time>2015-10-10T07:35:09Z</time>
      </trkpt>
      <trkpt lat="44.04553" lon="5.17894">
        <ele>365.4383545</ele>
        <time>2015-10-10T07:35:22Z</time>
      </trkpt>
      <trkpt lat="44.04549" lon="5.17903">
        <ele>365.9189453</ele>
        <time>2015-10-10T07:35:36Z</time>
      </trkpt>
      <trkpt lat="44.04541" lon="5.17906">
        <ele>366.880249</ele>
        <time>2015-10-10T07:35:48Z</time>
      </trkpt>
      <trkpt lat="44.04531" lon="5.17902">
        <ele>366.3995361</ele>
        <time>2015-10-10T07:36:01Z</time>
      </trkpt>
      <trkpt lat="44.04526" lon="5.17895">
        <ele>368.3222656</ele>
        <time>2015-10-10T07:36:13Z</time>
      </trkpt>
      <trkpt lat="44.04525" lon="5.17895">
        <ele>367.8415527</ele>
        <time>2015-10-10T07:36:36Z</time>
      </trkpt>
      <trkpt lat="44.04524" lon="5.17895">
        <ele>368.3222656</ele>
        <time>2015-10-10T07:36:44Z</time>
      </trkpt>
      <trkpt lat="44.04509" lon="5.17891">
        <ele>368.8029785</ele>
        <time>2015-10-10T07:36:55Z</time>
      </trkpt>
      <trkpt lat="44.04509" lon="5.17891">
        <ele>368.8029785</ele>
        <time>2015-10-10T07:36:56Z</time>
      </trkpt>
      <trkpt lat="44.045" lon="5.17894">
        <ele>369.2836914</ele>
        <time>2015-10-10T07:37:09Z</time>
      </trkpt>
      <trkpt lat="44.045" lon="5.17894">
        <ele>368.8029785</ele>
        <time>2015-10-10T07:37:18Z</time>
      </trkpt>
      <trkpt lat="44.04489" lon="5.17897">
        <ele>371.6868896</ele>
        <time>2015-10-10T07:37:27Z</time>
      </trkpt>
      <trkpt lat="44.0449" lon="5.17904">
        <ele>373.6094971</ele>
        <time>2015-10-10T07:37:31Z</time>
      </trkpt>
      <trkpt lat="44.04491" lon="5.17915">
        <ele>376.4935303</ele>
        <time>2015-10-10T07:37:40Z</time>
      </trkpt>
      <trkpt lat="44.04487" lon="5.17917">
        <ele>377.454834</ele>
        <time>2015-10-10T07:37:53Z</time>
      </trkpt>
      <trkpt lat="44.04485" lon="5.17917">
        <ele>377.454834</ele>
        <time>2015-10-10T07:37:54Z</time>
      </trkpt>
      <trkpt lat="44.04465" lon="5.17926">
        <ele>378.8968506</ele>
        <time>2015-10-10T07:38:09Z</time>
      </trkpt>
      <trkpt lat="44.04447" lon="5.1793">
        <ele>380.819458</ele>
        <time>2015-10-10T07:38:19Z</time>
      </trkpt>
      <trkpt lat="44.04432" lon="5.17934">
        <ele>380.819458</ele>
        <time>2015-10-10T07:38:28Z</time>
      </trkpt>
      <trkpt lat="44.04419" lon="5.17938">
        <ele>381.7806396</ele>
        <time>2015-10-10T07:38:36Z</time>
      </trkpt>
      <trkpt lat="44.04415" lon="5.17946">
        <ele>383.2226563</ele>
        <time>2015-10-10T07:38:40Z</time>
      </trkpt>
      <trkpt lat="44.04409" lon="5.17952">
        <ele>383.7032471</ele>
        <time>2015-10-10T07:38:44Z</time>
      </trkpt>
      <trkpt lat="44.04381" lon="5.17974">
        <ele>388.0292969</ele>
        <time>2015-10-10T07:39:01Z</time>
      </trkpt>
      <trkpt lat="44.04361" lon="5.17977">
        <ele>385.6259766</ele>
        <time>2015-10-10T07:39:14Z</time>
      </trkpt>
      <trkpt lat="44.04335" lon="5.17978">
        <ele>387.0679932</ele>
        <time>2015-10-10T07:39:30Z</time>
      </trkpt>
      <trkpt lat="44.04316" lon="5.17981">
        <ele>388.0292969</ele>
        <time>2015-10-10T07:39:44Z</time>
      </trkpt>
      <trkpt lat="44.043" lon="5.17982">
        <ele>388.5100098</ele>
        <time>2015-10-10T07:39:53Z</time>
      </trkpt>
      <trkpt lat="44.04272" lon="5.17966">
        <ele>391.3937988</ele>
        <time>2015-10-10T07:40:04Z</time>
      </trkpt>
      <trkpt lat="44.04265" lon="5.17962">
        <ele>390.913208</ele>
        <time>2015-10-10T07:40:07Z</time>
      </trkpt>
      <trkpt lat="44.04261" lon="5.17962">
        <ele>391.3937988</ele>
        <time>2015-10-10T07:40:09Z</time>
      </trkpt>
      <trkpt lat="44.04258" lon="5.1796">
        <ele>391.3937988</ele>
        <time>2015-10-10T07:40:11Z</time>
      </trkpt>
      <trkpt lat="44.04234" lon="5.17965">
        <ele>392.3553467</ele>
        <time>2015-10-10T07:40:21Z</time>
      </trkpt>
      <trkpt lat="44.0422" lon="5.1797">
        <ele>394.7585449</ele>
        <time>2015-10-10T07:40:29Z</time>
      </trkpt>
      <trkpt lat="44.04211" lon="5.1797">
        <ele>396.2005615</ele>
        <time>2015-10-10T07:40:40Z</time>
      </trkpt>
      <trkpt lat="44.04209" lon="5.17972">
        <ele>396.6811523</ele>
        <time>2015-10-10T07:40:48Z</time>
      </trkpt>
      <trkpt lat="44.04208" lon="5.17973">
        <ele>397.1617432</ele>
        <time>2015-10-10T07:41:14Z</time>
      </trkpt>
      <trkpt lat="44.04202" lon="5.17979">
        <ele>398.1231689</ele>
        <time>2015-10-10T07:41:24Z</time>
      </trkpt>
      <trkpt lat="44.04207" lon="5.17984">
        <ele>398.6037598</ele>
        <time>2015-10-10T07:41:36Z</time>
      </trkpt>
      <trkpt lat="44.04212" lon="5.17991">
        <ele>400.5264893</ele>
        <time>2015-10-10T07:41:50Z</time>
      </trkpt>
      <trkpt lat="44.04221" lon="5.17987">
        <ele>403.8911133</ele>
        <time>2015-10-10T07:42:03Z</time>
      </trkpt>
      <trkpt lat="44.04221" lon="5.17988">
        <ele>404.8522949</ele>
        <time>2015-10-10T07:42:14Z</time>
      </trkpt>
      <trkpt lat="44.04213" lon="5.17997">
        <ele>407.2556152</ele>
        <time>2015-10-10T07:42:21Z</time>
      </trkpt>
      <trkpt lat="44.04193" lon="5.18003">
        <ele>406.2943115</ele>
        <time>2015-10-10T07:42:34Z</time>
      </trkpt>
      <trkpt lat="44.04184" lon="5.18002">
        <ele>406.7749023</ele>
        <time>2015-10-10T07:42:37Z</time>
      </trkpt>
      <trkpt lat="44.04163" lon="5.18006">
        <ele>410.1396484</ele>
        <time>2015-10-10T07:42:45Z</time>
      </trkpt>
      <trkpt lat="44.04144" lon="5.18003">
        <ele>409.1783447</ele>
        <time>2015-10-10T07:42:52Z</time>
      </trkpt>
      <trkpt lat="44.0414" lon="5.18008">
        <ele>409.6590576</ele>
        <time>2015-10-10T07:42:56Z</time>
      </trkpt>
      <trkpt lat="44.04134" lon="5.18028">
        <ele>411.1009521</ele>
        <time>2015-10-10T07:43:06Z</time>
      </trkpt>
      <trkpt lat="44.04134" lon="5.18039">
        <ele>411.581665</ele>
        <time>2015-10-10T07:43:17Z</time>
      </trkpt>
      <trkpt lat="44.04135" lon="5.18041">
        <ele>411.581665</ele>
        <time>2015-10-10T07:43:41Z</time>
      </trkpt>
      <trkpt lat="44.04114" lon="5.18037">
        <ele>412.5428467</ele>
        <time>2015-10-10T07:43:50Z</time>
      </trkpt>
      <trkpt lat="44.04101" lon="5.18022">
        <ele>409.6590576</ele>
        <time>2015-10-10T07:43:57Z</time>
      </trkpt>
      <trkpt lat="44.04078" lon="5.18016">
        <ele>408.6976318</ele>
        <time>2015-10-10T07:44:06Z</time>
      </trkpt>
      <trkpt lat="44.04073" lon="5.17999">
        <ele>408.217041</ele>
        <time>2015-10-10T07:44:11Z</time>
      </trkpt>
      <trkpt lat="44.04056" lon="5.17991">
        <ele>407.7363281</ele>
        <time>2015-10-10T07:44:16Z</time>
      </trkpt>
      <trkpt lat="44.04044" lon="5.18">
        <ele>407.2556152</ele>
        <time>2015-10-10T07:44:22Z</time>
      </trkpt>
      <trkpt lat="44.04037" lon="5.18006">
        <ele>408.217041</ele>
        <time>2015-10-10T07:44:25Z</time>
      </trkpt>
      <trkpt lat="44.04027" lon="5.1801">
        <ele>409.1783447</ele>
        <time>2015-10-10T07:44:28Z</time>
      </trkpt>
      <trkpt lat="44.04017" lon="5.18022">
        <ele>407.7363281</ele>
        <time>2015-10-10T07:44:33Z</time>
      </trkpt>
      <trkpt lat="44.04007" lon="5.18021">
        <ele>404.8522949</ele>
        <time>2015-10-10T07:44:37Z</time>
      </trkpt>
      <trkpt lat="44.04003" lon="5.18009">
        <ele>404.3717041</ele>
        <time>2015-10-10T07:44:41Z</time>
      </trkpt>
      <trkpt lat="44.04002" lon="5.18001">
        <ele>404.3717041</ele>
        <time>2015-10-10T07:44:43Z</time>
      </trkpt>
      <trkpt lat="44.03987" lon="5.18003">
        <ele>404.8522949</ele>
        <time>2015-10-10T07:44:48Z</time>
      </trkpt>
      <trkpt lat="44.03971" lon="5.18008">
        <ele>402.9296875</ele>
        <time>2015-10-10T07:44:54Z</time>
      </trkpt>
      <trkpt lat="44.0397" lon="5.18004">
        <ele>402.9296875</ele>
        <time>2015-10-10T07:44:57Z</time>
      </trkpt>
      <trkpt lat="44.03964" lon="5.17994">
        <ele>401.0070801</ele>
        <time>2015-10-10T07:45:03Z</time>
      </trkpt>
      <trkpt lat="44.03963" lon="5.1799">
        <ele>401.487793</ele>
        <time>2015-10-10T07:45:04Z</time>
      </trkpt>
      <trkpt lat="44.03947" lon="5.18007">
        <ele>400.5264893</ele>
        <time>2015-10-10T07:45:12Z</time>
      </trkpt>
      <trkpt lat="44.03939" lon="5.18011">
        <ele>397.6424561</ele>
        <time>2015-10-10T07:45:16Z</time>
      </trkpt>
      <trkpt lat="44.03928" lon="5.18025">
        <ele>398.1231689</ele>
        <time>2015-10-10T07:45:22Z</time>
      </trkpt>
      <trkpt lat="44.03926" lon="5.18031">
        <ele>397.6424561</ele>
        <time>2015-10-10T07:45:24Z</time>
      </trkpt>
      <trkpt lat="44.03918" lon="5.1805">
        <ele>396.2005615</ele>
        <time>2015-10-10T07:45:29Z</time>
      </trkpt>
      <trkpt lat="44.03916" lon="5.18064">
        <ele>396.2005615</ele>
        <time>2015-10-10T07:45:33Z</time>
      </trkpt>
      <trkpt lat="44.03912" lon="5.18088">
        <ele>396.2005615</ele>
        <time>2015-10-10T07:45:41Z</time>
      </trkpt>
      <trkpt lat="44.03914" lon="5.18106">
        <ele>396.6811523</ele>
        <time>2015-10-10T07:45:45Z</time>
      </trkpt>
      <trkpt lat="44.03906" lon="5.18125">
        <ele>395.7198486</ele>
        <time>2015-10-10T07:45:51Z</time>
      </trkpt>
      <trkpt lat="44.03894" lon="5.18126">
        <ele>393.7972412</ele>
        <time>2015-10-10T07:45:56Z</time>
      </trkpt>
      <trkpt lat="44.03886" lon="5.18115">
        <ele>391.3937988</ele>
        <time>2015-10-10T07:46:00Z</time>
      </trkpt>
      <trkpt lat="44.0388" lon="5.18109">
        <ele>391.3937988</ele>
        <time>2015-10-10T07:46:02Z</time>
      </trkpt>
      <trkpt lat="44.03867" lon="5.1811">
        <ele>389.9519043</ele>
        <time>2015-10-10T07:46:06Z</time>
      </trkpt>
      <trkpt lat="44.03858" lon="5.18092">
        <ele>390.4326172</ele>
        <time>2015-10-10T07:46:12Z</time>
      </trkpt>
      <trkpt lat="44.03856" lon="5.18076">
        <ele>390.4326172</ele>
        <time>2015-10-10T07:46:16Z</time>
      </trkpt>
      <trkpt lat="44.03856" lon="5.18063">
        <ele>390.4326172</ele>
        <time>2015-10-10T07:46:20Z</time>
      </trkpt>
      <trkpt lat="44.03836" lon="5.1803">
        <ele>388.9906006</ele>
        <time>2015-10-10T07:46:29Z</time>
      </trkpt>
      <trkpt lat="44.03808" lon="5.18004">
        <ele>384.184082</ele>
        <time>2015-10-10T07:46:37Z</time>
      </trkpt>
      <trkpt lat="44.03769" lon="5.18008">
        <ele>382.2613525</ele>
        <time>2015-10-10T07:46:47Z</time>
      </trkpt>
      <trkpt lat="44.0374" lon="5.18014">
        <ele>381.3000488</ele>
        <time>2015-10-10T07:46:54Z</time>
      </trkpt>
      <trkpt lat="44.03725" lon="5.18029">
        <ele>379.8580322</ele>
        <time>2015-10-10T07:46:59Z</time>
      </trkpt>
      <trkpt lat="44.03694" lon="5.18045">
        <ele>375.5321045</ele>
        <time>2015-10-10T07:47:10Z</time>
      </trkpt>
      <trkpt lat="44.03677" lon="5.1807">
        <ele>372.6481934</ele>
        <time>2015-10-10T07:47:19Z</time>
      </trkpt>
      <trkpt lat="44.03655" lon="5.18085">
        <ele>368.8029785</ele>
        <time>2015-10-10T07:47:24Z</time>
      </trkpt>
      <trkpt lat="44.03633" lon="5.18101">
        <ele>366.880249</ele>
        <time>2015-10-10T07:47:29Z</time>
      </trkpt>
      <trkpt lat="44.03616" lon="5.18083">
        <ele>365.9189453</ele>
        <time>2015-10-10T07:47:35Z</time>
      </trkpt>
      <trkpt lat="44.03605" lon="5.18085">
        <ele>365.9189453</ele>
        <time>2015-10-10T07:47:39Z</time>
      </trkpt>
      <trkpt lat="44.03589" lon="5.1809">
        <ele>363.9963379</ele>
        <time>2015-10-10T07:47:44Z</time>
      </trkpt>
      <trkpt lat="44.03559" lon="5.18085">
        <ele>360.6317139</ele>
        <time>2015-10-10T07:47:51Z</time>
      </trkpt>
      <trkpt lat="44.03554" lon="5.18085">
        <ele>359.1896973</ele>
        <time>2015-10-10T07:47:53Z</time>
      </trkpt>
      <trkpt lat="44.03546" lon="5.18098">
        <ele>358.7089844</ele>
        <time>2015-10-10T07:47:57Z</time>
      </trkpt>
      <trkpt lat="44.03533" lon="5.18108">
        <ele>358.7089844</ele>
        <time>2015-10-10T07:48:01Z</time>
      </trkpt>
      <trkpt lat="44.03501" lon="5.18096">
        <ele>360.151123</ele>
        <time>2015-10-10T07:48:11Z</time>
      </trkpt>
      <trkpt lat="44.03497" lon="5.1805">
        <ele>357.2670898</ele>
        <time>2015-10-10T07:48:19Z</time>
      </trkpt>
      <trkpt lat="44.03494" lon="5.18008">
        <ele>356.786377</ele>
        <time>2015-10-10T07:48:25Z</time>
      </trkpt>
      <trkpt lat="44.03497" lon="5.1798">
        <ele>354.8637695</ele>
        <time>2015-10-10T07:48:29Z</time>
      </trkpt>
      <trkpt lat="44.03517" lon="5.1789">
        <ele>347.6539307</ele>
        <time>2015-10-10T07:48:41Z</time>
      </trkpt>
      <trkpt lat="44.0352" lon="5.17878">
        <ele>347.1732178</ele>
        <time>2015-10-10T07:48:43Z</time>
      </trkpt>
      <trkpt lat="44.03551" lon="5.1782">
        <ele>345.2506104</ele>
        <time>2015-10-10T07:48:55Z</time>
      </trkpt>
      <trkpt lat="44.03551" lon="5.17811">
        <ele>345.2506104</ele>
        <time>2015-10-10T07:48:58Z</time>
      </trkpt>
      <trkpt lat="44.03551" lon="5.17802">
        <ele>346.2120361</ele>
        <time>2015-10-10T07:49:02Z</time>
      </trkpt>
      <trkpt lat="44.03559" lon="5.17789">
        <ele>346.692627</ele>
        <time>2015-10-10T07:49:08Z</time>
      </trkpt>
      <trkpt lat="44.03564" lon="5.17769">
        <ele>348.1346436</ele>
        <time>2015-10-10T07:49:16Z</time>
      </trkpt>
      <trkpt lat="44.03566" lon="5.17758">
        <ele>349.0958252</ele>
        <time>2015-10-10T07:49:25Z</time>
      </trkpt>
      <trkpt lat="44.03563" lon="5.1775">
        <ele>349.0958252</ele>
        <time>2015-10-10T07:49:44Z</time>
      </trkpt>
      <trkpt lat="44.03562" lon="5.17741">
        <ele>349.0958252</ele>
        <time>2015-10-10T07:49:57Z</time>
      </trkpt>
      <trkpt lat="44.0356" lon="5.17733">
        <ele>349.5765381</ele>
        <time>2015-10-10T07:50:09Z</time>
      </trkpt>
      <trkpt lat="44.03559" lon="5.17729">
        <ele>350.057251</ele>
        <time>2015-10-10T07:50:17Z</time>
      </trkpt>
      <trkpt lat="44.03555" lon="5.17707">
        <ele>354.8637695</ele>
        <time>2015-10-10T07:50:27Z</time>
      </trkpt>
      <trkpt lat="44.03554" lon="5.1768">
        <ele>359.1896973</ele>
        <time>2015-10-10T07:50:38Z</time>
      </trkpt>
      <trkpt lat="44.03566" lon="5.17674">
        <ele>357.7478027</ele>
        <time>2015-10-10T07:50:43Z</time>
      </trkpt>
      <trkpt lat="44.03567" lon="5.17669">
        <ele>357.7478027</ele>
        <time>2015-10-10T07:50:44Z</time>
      </trkpt>
      <trkpt lat="44.03583" lon="5.17629">
        <ele>354.8637695</ele>
        <time>2015-10-10T07:50:52Z</time>
      </trkpt>
      <trkpt lat="44.03592" lon="5.17612">
        <ele>353.421875</ele>
        <time>2015-10-10T07:50:55Z</time>
      </trkpt>
      <trkpt lat="44.03603" lon="5.17599">
        <ele>351.9798584</ele>
        <time>2015-10-10T07:50:58Z</time>
      </trkpt>
      <trkpt lat="44.03609" lon="5.17576">
        <ele>353.9025879</ele>
        <time>2015-10-10T07:51:03Z</time>
      </trkpt>
      <trkpt lat="44.03601" lon="5.17547">
        <ele>356.3057861</ele>
        <time>2015-10-10T07:51:13Z</time>
      </trkpt>
      <trkpt lat="44.03596" lon="5.17544">
        <ele>355.8251953</ele>
        <time>2015-10-10T07:51:15Z</time>
      </trkpt>
      <trkpt lat="44.03587" lon="5.17527">
        <ele>354.3831787</ele>
        <time>2015-10-10T07:51:20Z</time>
      </trkpt>
      <trkpt lat="44.03573" lon="5.17518">
        <ele>352.4605713</ele>
        <time>2015-10-10T07:51:23Z</time>
      </trkpt>
      <trkpt lat="44.03558" lon="5.17487">
        <ele>347.1732178</ele>
        <time>2015-10-10T07:51:30Z</time>
      </trkpt>
      <trkpt lat="44.03556" lon="5.17482">
        <ele>347.1732178</ele>
        <time>2015-10-10T07:51:31Z</time>
      </trkpt>
      <trkpt lat="44.03557" lon="5.17469">
        <ele>346.692627</ele>
        <time>2015-10-10T07:51:33Z</time>
      </trkpt>
      <trkpt lat="44.0357" lon="5.17434">
        <ele>345.7313232</ele>
        <time>2015-10-10T07:51:39Z</time>
      </trkpt>
      <trkpt lat="44.03569" lon="5.17401">
        <ele>341.8859863</ele>
        <time>2015-10-10T07:51:44Z</time>
      </trkpt>
      <trkpt lat="44.03576" lon="5.17377">
        <ele>340.4440918</ele>
        <time>2015-10-10T07:51:48Z</time>
      </trkpt>
      <trkpt lat="44.03603" lon="5.17354">
        <ele>339.0020752</ele>
        <time>2015-10-10T07:51:58Z</time>
      </trkpt>
      <trkpt lat="44.03608" lon="5.1735">
        <ele>339.482666</ele>
        <time>2015-10-10T07:51:59Z</time>
      </trkpt>
      <trkpt lat="44.03621" lon="5.17323">
        <ele>339.482666</ele>
        <time>2015-10-10T07:52:04Z</time>
      </trkpt>
      <trkpt lat="44.03626" lon="5.17302">
        <ele>338.5214844</ele>
        <time>2015-10-10T07:52:07Z</time>
      </trkpt>
      <trkpt lat="44.03646" lon="5.17265">
        <ele>335.6373291</ele>
        <time>2015-10-10T07:52:14Z</time>
      </trkpt>
      <trkpt lat="44.03666" lon="5.17227">
        <ele>333.7147217</ele>
        <time>2015-10-10T07:52:21Z</time>
      </trkpt>
      <trkpt lat="44.03669" lon="5.17222">
        <ele>333.2341309</ele>
        <time>2015-10-10T07:52:22Z</time>
      </trkpt>
      <trkpt lat="44.03671" lon="5.17199">
        <ele>331.3115234</ele>
        <time>2015-10-10T07:52:27Z</time>
      </trkpt>
      <trkpt lat="44.03678" lon="5.17186">
        <ele>328.4276123</ele>
        <time>2015-10-10T07:52:31Z</time>
      </trkpt>
      <trkpt lat="44.03685" lon="5.17174">
        <ele>325.0629883</ele>
        <time>2015-10-10T07:52:35Z</time>
      </trkpt>
      <trkpt lat="44.03695" lon="5.17172">
        <ele>326.0241699</ele>
        <time>2015-10-10T07:52:39Z</time>
      </trkpt>
      <trkpt lat="44.037" lon="5.17166">
        <ele>323.1403809</ele>
        <time>2015-10-10T07:52:43Z</time>
      </trkpt>
      <trkpt lat="44.03714" lon="5.17157">
        <ele>320.2563477</ele>
        <time>2015-10-10T07:52:51Z</time>
      </trkpt>
      <trkpt lat="44.03716" lon="5.17155">
        <ele>319.2950439</ele>
        <time>2015-10-10T07:52:53Z</time>
      </trkpt>
      <trkpt lat="44.03718" lon="5.17139">
        <ele>316.4110107</ele>
        <time>2015-10-10T07:52:58Z</time>
      </trkpt>
      <trkpt lat="44.03715" lon="5.17132">
        <ele>315.4498291</ele>
        <time>2015-10-10T07:53:01Z</time>
      </trkpt>
      <trkpt lat="44.03717" lon="5.17104">
        <ele>310.1624756</ele>
        <time>2015-10-10T07:53:10Z</time>
      </trkpt>
      <trkpt lat="44.03717" lon="5.17092">
        <ele>308.2398682</ele>
        <time>2015-10-10T07:53:14Z</time>
      </trkpt>
      <trkpt lat="44.03718" lon="5.17087">
        <ele>307.2785645</ele>
        <time>2015-10-10T07:53:16Z</time>
      </trkpt>
      <trkpt lat="44.03717" lon="5.17059">
        <ele>303.4332275</ele>
        <time>2015-10-10T07:53:25Z</time>
      </trkpt>
      <trkpt lat="44.03716" lon="5.17049">
        <ele>301.991333</ele>
        <time>2015-10-10T07:53:31Z</time>
      </trkpt>
      <trkpt lat="44.03716" lon="5.17046">
        <ele>301.5106201</ele>
        <time>2015-10-10T07:53:39Z</time>
      </trkpt>
      <trkpt lat="44.03721" lon="5.17041">
        <ele>301.5106201</ele>
        <time>2015-10-10T07:53:43Z</time>
      </trkpt>
      <trkpt lat="44.03726" lon="5.17041">
        <ele>301.991333</ele>
        <time>2015-10-10T07:53:45Z</time>
      </trkpt>
      <trkpt lat="44.03736" lon="5.17037">
        <ele>301.0299072</ele>
        <time>2015-10-10T07:53:54Z</time>
      </trkpt>
      <trkpt lat="44.03736" lon="5.17035">
        <ele>300.0687256</ele>
        <time>2015-10-10T07:53:56Z</time>
      </trkpt>
      <trkpt lat="44.03744" lon="5.17024">
        <ele>297.6654053</ele>
        <time>2015-10-10T07:54:02Z</time>
      </trkpt>
      <trkpt lat="44.03747" lon="5.17023">
        <ele>297.6654053</ele>
        <time>2015-10-10T07:54:03Z</time>
      </trkpt>
      <trkpt lat="44.03753" lon="5.17018">
        <ele>296.2235107</ele>
        <time>2015-10-10T07:54:06Z</time>
      </trkpt>
      <trkpt lat="44.03759" lon="5.17017">
        <ele>293.3393555</ele>
        <time>2015-10-10T07:54:13Z</time>
      </trkpt>
      <trkpt lat="44.03759" lon="5.16998">
        <ele>291.416748</ele>
        <time>2015-10-10T07:54:20Z</time>
      </trkpt>
      <trkpt lat="44.03756" lon="5.16991">
        <ele>290.9361572</ele>
        <time>2015-10-10T07:54:22Z</time>
      </trkpt>
      <trkpt lat="44.03755" lon="5.16977">
        <ele>289.9748535</ele>
        <time>2015-10-10T07:54:27Z</time>
      </trkpt>
      <trkpt lat="44.03747" lon="5.16938">
        <ele>288.0522461</ele>
        <time>2015-10-10T07:54:35Z</time>
      </trkpt>
      <trkpt lat="44.03746" lon="5.16922">
        <ele>287.5714111</ele>
        <time>2015-10-10T07:54:38Z</time>
      </trkpt>
      <trkpt lat="44.03748" lon="5.16912">
        <ele>287.0908203</ele>
        <time>2015-10-10T07:54:40Z</time>
      </trkpt>
      <trkpt lat="44.03749" lon="5.16897">
        <ele>286.6102295</ele>
        <time>2015-10-10T07:54:48Z</time>
      </trkpt>
      <trkpt lat="44.0375" lon="5.16894">
        <ele>286.6102295</ele>
        <time>2015-10-10T07:55:01Z</time>
      </trkpt>
      <trkpt lat="44.0375" lon="5.16893">
        <ele>287.0908203</ele>
        <time>2015-10-10T07:55:16Z</time>
      </trkpt>
      <trkpt lat="44.03753" lon="5.16881">
        <ele>285.1682129</ele>
        <time>2015-10-10T07:55:21Z</time>
      </trkpt>
      <trkpt lat="44.03758" lon="5.1688">
        <ele>282.7650146</ele>
        <time>2015-10-10T07:55:26Z</time>
      </trkpt>
      <trkpt lat="44.03775" lon="5.16892">
        <ele>280.8424072</ele>
        <time>2015-10-10T07:55:40Z</time>
      </trkpt>
      <trkpt lat="44.03791" lon="5.16896">
        <ele>276.9970703</ele>
        <time>2015-10-10T07:55:51Z</time>
      </trkpt>
      <trkpt lat="44.03791" lon="5.16898">
        <ele>276.9970703</ele>
        <time>2015-10-10T07:56:13Z</time>
      </trkpt>
      <trkpt lat="44.03814" lon="5.16901">
        <ele>277.958252</ele>
        <time>2015-10-10T07:56:23Z</time>
      </trkpt>
      <trkpt lat="44.03856" lon="5.16905">
        <ele>276.9970703</ele>
        <time>2015-10-10T07:56:38Z</time>
      </trkpt>
      <trkpt lat="44.03881" lon="5.16908">
        <ele>279.4002686</ele>
        <time>2015-10-10T07:56:48Z</time>
      </trkpt>
      <trkpt lat="44.03877" lon="5.16918">
        <ele>281.8035889</ele>
        <time>2015-10-10T07:56:54Z</time>
      </trkpt>
      <trkpt lat="44.03875" lon="5.16918">
        <ele>282.2843018</ele>
        <time>2015-10-10T07:56:55Z</time>
      </trkpt>
      <trkpt lat="44.03868" lon="5.1692">
        <ele>283.2456055</ele>
        <time>2015-10-10T07:56:59Z</time>
      </trkpt>
      <trkpt lat="44.03842" lon="5.16923">
        <ele>282.7650146</ele>
        <time>2015-10-10T07:57:12Z</time>
      </trkpt>
      <trkpt lat="44.03821" lon="5.16933">
        <ele>286.1295166</ele>
        <time>2015-10-10T07:57:23Z</time>
      </trkpt>
      <trkpt lat="44.03805" lon="5.16955">
        <ele>286.6102295</ele>
        <time>2015-10-10T07:57:34Z</time>
      </trkpt>
      <trkpt lat="44.03813" lon="5.16976">
        <ele>286.6102295</ele>
        <time>2015-10-10T07:57:43Z</time>
      </trkpt>
      <trkpt lat="44.03837" lon="5.16995">
        <ele>289.0135498</ele>
        <time>2015-10-10T07:57:56Z</time>
      </trkpt>
      <trkpt lat="44.03858" lon="5.17023">
        <ele>289.9748535</ele>
        <time>2015-10-10T07:58:11Z</time>
      </trkpt>
      <trkpt lat="44.03867" lon="5.17043">
        <ele>293.3393555</ele>
        <time>2015-10-10T07:58:20Z</time>
      </trkpt>
      <trkpt lat="44.0387" lon="5.17064">
        <ele>292.3781738</ele>
        <time>2015-10-10T07:58:28Z</time>
      </trkpt>
      <trkpt lat="44.03866" lon="5.171">
        <ele>297.1846924</ele>
        <time>2015-10-10T07:58:41Z</time>
      </trkpt>
      <trkpt lat="44.03857" lon="5.1712">
        <ele>298.1461182</ele>
        <time>2015-10-10T07:58:51Z</time>
      </trkpt>
      <trkpt lat="44.03837" lon="5.17152">
        <ele>297.6654053</ele>
        <time>2015-10-10T07:59:08Z</time>
      </trkpt>
      <trkpt lat="44.03822" lon="5.17166">
        <ele>297.1846924</ele>
        <time>2015-10-10T07:59:19Z</time>
      </trkpt>
      <trkpt lat="44.03808" lon="5.17176">
        <ele>295.2619629</ele>
        <time>2015-10-10T07:59:29Z</time>
      </trkpt>
      <trkpt lat="44.03789" lon="5.17191">
        <ele>298.1461182</ele>
        <time>2015-10-10T07:59:43Z</time>
      </trkpt>
      <trkpt lat="44.0378" lon="5.1721">
        <ele>300.0687256</ele>
        <time>2015-10-10T07:59:54Z</time>
      </trkpt>
      <trkpt lat="44.0378" lon="5.17215">
        <ele>299.1072998</ele>
        <time>2015-10-10T07:59:57Z</time>
      </trkpt>
      <trkpt lat="44.03779" lon="5.17234">
        <ele>299.1072998</ele>
        <time>2015-10-10T08:00:06Z</time>
      </trkpt>
      <trkpt lat="44.03775" lon="5.17257">
        <ele>303.9139404</ele>
        <time>2015-10-10T08:00:17Z</time>
      </trkpt>
      <trkpt lat="44.03774" lon="5.17261">
        <ele>303.9139404</ele>
        <time>2015-10-10T08:00:20Z</time>
      </trkpt>
      <trkpt lat="44.03773" lon="5.17262">
        <ele>304.3946533</ele>
        <time>2015-10-10T08:00:22Z</time>
      </trkpt>
      <trkpt lat="44.03772" lon="5.17278">
        <ele>305.355957</ele>
        <time>2015-10-10T08:00:29Z</time>
      </trkpt>
      <trkpt lat="44.03776" lon="5.17297">
        <ele>310.1624756</ele>
        <time>2015-10-10T08:00:40Z</time>
      </trkpt>
      <trkpt lat="44.03775" lon="5.17304">
        <ele>312.0852051</ele>
        <time>2015-10-10T08:00:57Z</time>
      </trkpt>
      <trkpt lat="44.03766" lon="5.17299">
        <ele>311.1237793</ele>
        <time>2015-10-10T08:01:05Z</time>
      </trkpt>
      <trkpt lat="44.03768" lon="5.17294">
        <ele>310.6430664</ele>
        <time>2015-10-10T08:01:09Z</time>
      </trkpt>
      <trkpt lat="44.03764" lon="5.17264">
        <ele>311.1237793</ele>
        <time>2015-10-10T08:01:24Z</time>
      </trkpt>
      <trkpt lat="44.03762" lon="5.17258">
        <ele>311.6044922</ele>
        <time>2015-10-10T08:01:27Z</time>
      </trkpt>
      <trkpt lat="44.03763" lon="5.17249">
        <ele>313.0465088</ele>
        <time>2015-10-10T08:01:32Z</time>
      </trkpt>
      <trkpt lat="44.03762" lon="5.17245">
        <ele>313.5272217</ele>
        <time>2015-10-10T08:01:34Z</time>
      </trkpt>
      <trkpt lat="44.0376" lon="5.17219">
        <ele>317.3724365</ele>
        <time>2015-10-10T08:01:45Z</time>
      </trkpt>
      <trkpt lat="44.03757" lon="5.17209">
        <ele>316.4110107</ele>
        <time>2015-10-10T08:01:50Z</time>
      </trkpt>
      <trkpt lat="44.03751" lon="5.17205">
        <ele>314.9691162</ele>
        <time>2015-10-10T08:01:54Z</time>
      </trkpt>
      <trkpt lat="44.03746" lon="5.17214">
        <ele>314.0078125</ele>
        <time>2015-10-10T08:02:03Z</time>
      </trkpt>
      <trkpt lat="44.03745" lon="5.17217">
        <ele>313.5272217</ele>
        <time>2015-10-10T08:02:05Z</time>
      </trkpt>
      <trkpt lat="44.03744" lon="5.17221">
        <ele>314.0078125</ele>
        <time>2015-10-10T08:02:07Z</time>
      </trkpt>
      <trkpt lat="44.03742" lon="5.17237">
        <ele>314.4884033</ele>
        <time>2015-10-10T08:02:15Z</time>
      </trkpt>
      <trkpt lat="44.03743" lon="5.17242">
        <ele>314.4884033</ele>
        <time>2015-10-10T08:02:17Z</time>
      </trkpt>
      <trkpt lat="44.03743" lon="5.17253">
        <ele>313.5272217</ele>
        <time>2015-10-10T08:02:22Z</time>
      </trkpt>
      <trkpt lat="44.03743" lon="5.17261">
        <ele>314.0078125</ele>
        <time>2015-10-10T08:02:26Z</time>
      </trkpt>
      <trkpt lat="44.03743" lon="5.17289">
        <ele>314.4884033</ele>
        <time>2015-10-10T08:02:38Z</time>
      </trkpt>
      <trkpt lat="44.03742" lon="5.17319">
        <ele>314.4884033</ele>
        <time>2015-10-10T08:02:50Z</time>
      </trkpt>
      <trkpt lat="44.03738" lon="5.17343">
        <ele>317.3724365</ele>
        <time>2015-10-10T08:03:01Z</time>
      </trkpt>
      <trkpt lat="44.03732" lon="5.1738">
        <ele>319.7756348</ele>
        <time>2015-10-10T08:03:16Z</time>
      </trkpt>
      <trkpt lat="44.03727" lon="5.17396">
        <ele>322.1789551</ele>
        <time>2015-10-10T08:03:23Z</time>
      </trkpt>
      <trkpt lat="44.03729" lon="5.17434">
        <ele>320.7370605</ele>
        <time>2015-10-10T08:03:38Z</time>
      </trkpt>
      <trkpt lat="44.03728" lon="5.17472">
        <ele>323.6209717</ele>
        <time>2015-10-10T08:03:52Z</time>
      </trkpt>
      <trkpt lat="44.03716" lon="5.17507">
        <ele>324.5822754</ele>
        <time>2015-10-10T08:04:05Z</time>
      </trkpt>
      <trkpt lat="44.03703" lon="5.17535">
        <ele>327.4661865</ele>
        <time>2015-10-10T08:04:20Z</time>
      </trkpt>
      <trkpt lat="44.03687" lon="5.17565">
        <ele>329.8695068</ele>
        <time>2015-10-10T08:04:34Z</time>
      </trkpt>
      <trkpt lat="44.03671" lon="5.17587">
        <ele>331.7921143</ele>
        <time>2015-10-10T08:04:47Z</time>
      </trkpt>
      <trkpt lat="44.03659" lon="5.17611">
        <ele>332.75354</ele>
        <time>2015-10-10T08:04:59Z</time>
      </trkpt>
      <trkpt lat="44.03645" lon="5.17648">
        <ele>332.75354</ele>
        <time>2015-10-10T08:05:14Z</time>
      </trkpt>
      <trkpt lat="44.03634" lon="5.17676">
        <ele>334.1954346</ele>
        <time>2015-10-10T08:05:25Z</time>
      </trkpt>
      <trkpt lat="44.03619" lon="5.17713">
        <ele>336.1181641</ele>
        <time>2015-10-10T08:05:40Z</time>
      </trkpt>
      <trkpt lat="44.03607" lon="5.17741">
        <ele>337.5600586</ele>
        <time>2015-10-10T08:05:53Z</time>
      </trkpt>
      <trkpt lat="44.03596" lon="5.17763">
        <ele>337.0794678</ele>
        <time>2015-10-10T08:06:04Z</time>
      </trkpt>
      <trkpt lat="44.03576" lon="5.17795">
        <ele>338.0407715</ele>
        <time>2015-10-10T08:06:18Z</time>
      </trkpt>
      <trkpt lat="44.03558" lon="5.1782">
        <ele>339.0020752</ele>
        <time>2015-10-10T08:06:29Z</time>
      </trkpt>
      <trkpt lat="44.0354" lon="5.17846">
        <ele>339.9633789</ele>
        <time>2015-10-10T08:06:40Z</time>
      </trkpt>
      <trkpt lat="44.03524" lon="5.17874">
        <ele>343.8085938</ele>
        <time>2015-10-10T08:06:51Z</time>
      </trkpt>
      <trkpt lat="44.03509" lon="5.17923">
        <ele>345.7313232</ele>
        <time>2015-10-10T08:07:07Z</time>
      </trkpt>
      <trkpt lat="44.03501" lon="5.17953">
        <ele>348.1346436</ele>
        <time>2015-10-10T08:07:18Z</time>
      </trkpt>
      <trkpt lat="44.03492" lon="5.17989">
        <ele>351.4991455</ele>
        <time>2015-10-10T08:07:30Z</time>
      </trkpt>
      <trkpt lat="44.03493" lon="5.18023">
        <ele>353.9025879</ele>
        <time>2015-10-10T08:07:41Z</time>
      </trkpt>
      <trkpt lat="44.03501" lon="5.18075">
        <ele>353.9025879</ele>
        <time>2015-10-10T08:07:58Z</time>
      </trkpt>
      <trkpt lat="44.03507" lon="5.1813">
        <ele>354.3831787</ele>
        <time>2015-10-10T08:08:15Z</time>
      </trkpt>
      <trkpt lat="44.03509" lon="5.18184">
        <ele>357.7478027</ele>
        <time>2015-10-10T08:08:31Z</time>
      </trkpt>
      <trkpt lat="44.0351" lon="5.18232">
        <ele>358.2283936</ele>
        <time>2015-10-10T08:08:46Z</time>
      </trkpt>
      <trkpt lat="44.03507" lon="5.18288">
        <ele>362.5543213</ele>
        <time>2015-10-10T08:09:04Z</time>
      </trkpt>
      <trkpt lat="44.03502" lon="5.18339">
        <ele>364.9576416</ele>
        <time>2015-10-10T08:09:20Z</time>
      </trkpt>
      <trkpt lat="44.03495" lon="5.18392">
        <ele>367.3609619</ele>
        <time>2015-10-10T08:09:36Z</time>
      </trkpt>
      <trkpt lat="44.03489" lon="5.18448">
        <ele>365.9189453</ele>
        <time>2015-10-10T08:09:51Z</time>
      </trkpt>
      <trkpt lat="44.03483" lon="5.18497">
        <ele>363.9963379</ele>
        <time>2015-10-10T08:10:04Z</time>
      </trkpt>
      <trkpt lat="44.03487" lon="5.18538">
        <ele>365.4383545</ele>
        <time>2015-10-10T08:10:15Z</time>
      </trkpt>
      <trkpt lat="44.03506" lon="5.18547">
        <ele>369.2836914</ele>
        <time>2015-10-10T08:10:20Z</time>
      </trkpt>
      <trkpt lat="44.03582" lon="5.1856">
        <ele>370.244873</ele>
        <time>2015-10-10T08:10:39Z</time>
      </trkpt>
      <trkpt lat="44.03629" lon="5.18569">
        <ele>369.2836914</ele>
        <time>2015-10-10T08:10:52Z</time>
      </trkpt>
      <trkpt lat="44.0365" lon="5.18603">
        <ele>363.5157471</ele>
        <time>2015-10-10T08:10:58Z</time>
      </trkpt>
      <trkpt lat="44.03658" lon="5.18622">
        <ele>361.5931396</ele>
        <time>2015-10-10T08:11:03Z</time>
      </trkpt>
      <trkpt lat="44.03658" lon="5.18616">
        <ele>361.5931396</ele>
        <time>2015-10-10T08:12:28Z</time>
      </trkpt>
      <trkpt lat="44.03675" lon="5.18609">
        <ele>360.6317139</ele>
        <time>2015-10-10T08:12:34Z</time>
      </trkpt>
      <trkpt lat="44.03706" lon="5.1861">
        <ele>365.4383545</ele>
        <time>2015-10-10T08:12:45Z</time>
      </trkpt>
      <trkpt lat="44.0373" lon="5.18607">
        <ele>368.8029785</ele>
        <time>2015-10-10T08:12:58Z</time>
      </trkpt>
      <trkpt lat="44.03757" lon="5.18604">
        <ele>366.3995361</ele>
        <time>2015-10-10T08:13:12Z</time>
      </trkpt>
      <trkpt lat="44.03778" lon="5.18593">
        <ele>369.2836914</ele>
        <time>2015-10-10T08:13:23Z</time>
      </trkpt>
      <trkpt lat="44.03781" lon="5.18591">
        <ele>369.7642822</ele>
        <time>2015-10-10T08:13:25Z</time>
      </trkpt>
      <trkpt lat="44.03803" lon="5.18577">
        <ele>370.7255859</ele>
        <time>2015-10-10T08:13:39Z</time>
      </trkpt>
      <trkpt lat="44.03824" lon="5.18573">
        <ele>371.6868896</ele>
        <time>2015-10-10T08:13:49Z</time>
      </trkpt>
      <trkpt lat="44.03842" lon="5.18563">
        <ele>372.1674805</ele>
        <time>2015-10-10T08:14:01Z</time>
      </trkpt>
      <trkpt lat="44.03846" lon="5.1856">
        <ele>373.1289063</ele>
        <time>2015-10-10T08:14:13Z</time>
      </trkpt>
      <trkpt lat="44.03853" lon="5.18553">
        <ele>374.5708008</ele>
        <time>2015-10-10T08:14:30Z</time>
      </trkpt>
      <trkpt lat="44.03866" lon="5.18554">
        <ele>377.9354248</ele>
        <time>2015-10-10T08:14:40Z</time>
      </trkpt>
      <trkpt lat="44.03881" lon="5.18556">
        <ele>379.3774414</ele>
        <time>2015-10-10T08:14:48Z</time>
      </trkpt>
      <trkpt lat="44.03896" lon="5.18555">
        <ele>379.8580322</ele>
        <time>2015-10-10T08:14:58Z</time>
      </trkpt>
      <trkpt lat="44.03915" lon="5.18557">
        <ele>383.7032471</ele>
        <time>2015-10-10T08:15:09Z</time>
      </trkpt>
      <trkpt lat="44.03933" lon="5.18563">
        <ele>384.6647949</ele>
        <time>2015-10-10T08:15:20Z</time>
      </trkpt>
      <trkpt lat="44.03946" lon="5.18558">
        <ele>385.6259766</ele>
        <time>2015-10-10T08:15:29Z</time>
      </trkpt>
      <trkpt lat="44.03969" lon="5.18554">
        <ele>386.5874023</ele>
        <time>2015-10-10T08:15:40Z</time>
      </trkpt>
      <trkpt lat="44.0399" lon="5.18555">
        <ele>386.1066895</ele>
        <time>2015-10-10T08:15:50Z</time>
      </trkpt>
      <trkpt lat="44.04003" lon="5.18556">
        <ele>386.5874023</ele>
        <time>2015-10-10T08:15:57Z</time>
      </trkpt>
      <trkpt lat="44.04009" lon="5.18558">
        <ele>388.5100098</ele>
        <time>2015-10-10T08:16:08Z</time>
      </trkpt>
      <trkpt lat="44.04013" lon="5.18566">
        <ele>387.548584</ele>
        <time>2015-10-10T08:16:12Z</time>
      </trkpt>
      <trkpt lat="44.04017" lon="5.18567">
        <ele>388.0292969</ele>
        <time>2015-10-10T08:16:15Z</time>
      </trkpt>
      <trkpt lat="44.04025" lon="5.18573">
        <ele>388.0292969</ele>
        <time>2015-10-10T08:16:20Z</time>
      </trkpt>
      <trkpt lat="44.04028" lon="5.18574">
        <ele>388.0292969</ele>
        <time>2015-10-10T08:16:22Z</time>
      </trkpt>
      <trkpt lat="44.04037" lon="5.18584">
        <ele>388.0292969</ele>
        <time>2015-10-10T08:16:28Z</time>
      </trkpt>
      <trkpt lat="44.04044" lon="5.18605">
        <ele>385.6259766</ele>
        <time>2015-10-10T08:16:34Z</time>
      </trkpt>
      <trkpt lat="44.04051" lon="5.18609">
        <ele>385.1453857</ele>
        <time>2015-10-10T08:16:38Z</time>
      </trkpt>
      <trkpt lat="44.04074" lon="5.18618">
        <ele>382.2613525</ele>
        <time>2015-10-10T08:16:49Z</time>
      </trkpt>
      <trkpt lat="44.041" lon="5.18626">
        <ele>379.8580322</ele>
        <time>2015-10-10T08:16:58Z</time>
      </trkpt>
      <trkpt lat="44.04102" lon="5.18627">
        <ele>379.8580322</ele>
        <time>2015-10-10T08:16:59Z</time>
      </trkpt>
      <trkpt lat="44.04109" lon="5.18629">
        <ele>377.9354248</ele>
        <time>2015-10-10T08:17:04Z</time>
      </trkpt>
      <trkpt lat="44.04116" lon="5.18631">
        <ele>377.9354248</ele>
        <time>2015-10-10T08:17:12Z</time>
      </trkpt>
      <trkpt lat="44.04118" lon="5.18631">
        <ele>376.9742432</ele>
        <time>2015-10-10T08:17:46Z</time>
      </trkpt>
      <trkpt lat="44.04118" lon="5.18631">
        <ele>376.9742432</ele>
        <time>2015-10-10T08:17:53Z</time>
      </trkpt>
      <trkpt lat="44.0413" lon="5.18623">
        <ele>378.4161377</ele>
        <time>2015-10-10T08:17:59Z</time>
      </trkpt>
      <trkpt lat="44.0414" lon="5.18619">
        <ele>379.3774414</ele>
        <time>2015-10-10T08:18:04Z</time>
      </trkpt>
      <trkpt lat="44.04142" lon="5.18617">
        <ele>379.8580322</ele>
        <time>2015-10-10T08:18:06Z</time>
      </trkpt>
      <trkpt lat="44.04161" lon="5.18605">
        <ele>383.2226563</ele>
        <time>2015-10-10T08:18:16Z</time>
      </trkpt>
      <trkpt lat="44.04175" lon="5.18592">
        <ele>384.6647949</ele>
        <time>2015-10-10T08:18:26Z</time>
      </trkpt>
      <trkpt lat="44.0418" lon="5.18587">
        <ele>384.184082</ele>
        <time>2015-10-10T08:18:35Z</time>
      </trkpt>
      <trkpt lat="44.04185" lon="5.18581">
        <ele>384.6647949</ele>
        <time>2015-10-10T08:18:44Z</time>
      </trkpt>
      <trkpt lat="44.04186" lon="5.1858">
        <ele>385.1453857</ele>
        <time>2015-10-10T08:18:49Z</time>
      </trkpt>
      <trkpt lat="44.04199" lon="5.1857">
        <ele>386.1066895</ele>
        <time>2015-10-10T08:19:00Z</time>
      </trkpt>
      <trkpt lat="44.04203" lon="5.18566">
        <ele>387.0679932</ele>
        <time>2015-10-10T08:19:02Z</time>
      </trkpt>
      <trkpt lat="44.04219" lon="5.18554">
        <ele>387.548584</ele>
        <time>2015-10-10T08:19:16Z</time>
      </trkpt>
      <trkpt lat="44.04222" lon="5.1855">
        <ele>389.4711914</ele>
        <time>2015-10-10T08:19:29Z</time>
      </trkpt>
      <trkpt lat="44.04222" lon="5.1855">
        <ele>389.9519043</ele>
        <time>2015-10-10T08:20:12Z</time>
      </trkpt>
      <trkpt lat="44.04242" lon="5.18541">
        <ele>386.5874023</ele>
        <time>2015-10-10T08:20:20Z</time>
      </trkpt>
      <trkpt lat="44.04278" lon="5.18512">
        <ele>378.8968506</ele>
        <time>2015-10-10T08:20:33Z</time>
      </trkpt>
      <trkpt lat="44.04304" lon="5.18484">
        <ele>372.1674805</ele>
        <time>2015-10-10T08:20:42Z</time>
      </trkpt>
      <trkpt lat="44.04307" lon="5.18478">
        <ele>371.6868896</ele>
        <time>2015-10-10T08:20:44Z</time>
      </trkpt>
      <trkpt lat="44.04346" lon="5.18434">
        <ele>367.8415527</ele>
        <time>2015-10-10T08:20:54Z</time>
      </trkpt>
      <trkpt lat="44.04356" lon="5.18419">
        <ele>365.9189453</ele>
        <time>2015-10-10T08:20:57Z</time>
      </trkpt>
      <trkpt lat="44.04374" lon="5.18414">
        <ele>362.0737305</ele>
        <time>2015-10-10T08:21:04Z</time>
      </trkpt>
      <trkpt lat="44.04373" lon="5.18433">
        <ele>358.2283936</ele>
        <time>2015-10-10T08:21:10Z</time>
      </trkpt>
      <trkpt lat="44.04372" lon="5.18474">
        <ele>356.786377</ele>
        <time>2015-10-10T08:21:20Z</time>
      </trkpt>
      <trkpt lat="44.04374" lon="5.18476">
        <ele>355.8251953</ele>
        <time>2015-10-10T08:21:30Z</time>
      </trkpt>
      <trkpt lat="44.04377" lon="5.18476">
        <ele>355.3444824</ele>
        <time>2015-10-10T08:21:39Z</time>
      </trkpt>
      <trkpt lat="44.04384" lon="5.18475">
        <ele>354.8637695</ele>
        <time>2015-10-10T08:21:51Z</time>
      </trkpt>
      <trkpt lat="44.04388" lon="5.18474">
        <ele>354.8637695</ele>
        <time>2015-10-10T08:21:58Z</time>
      </trkpt>
      <trkpt lat="44.04391" lon="5.1847">
        <ele>351.4991455</ele>
        <time>2015-10-10T08:22:09Z</time>
      </trkpt>
      <trkpt lat="44.04392" lon="5.18467">
        <ele>351.4991455</ele>
        <time>2015-10-10T08:22:10Z</time>
      </trkpt>
      <trkpt lat="44.04402" lon="5.18437">
        <ele>350.5378418</ele>
        <time>2015-10-10T08:22:20Z</time>
      </trkpt>
      <trkpt lat="44.04416" lon="5.184">
        <ele>349.0958252</ele>
        <time>2015-10-10T08:22:30Z</time>
      </trkpt>
      <trkpt lat="44.04435" lon="5.18343">
        <ele>348.6152344</ele>
        <time>2015-10-10T08:22:42Z</time>
      </trkpt>
      <trkpt lat="44.04437" lon="5.1834">
        <ele>348.1346436</ele>
        <time>2015-10-10T08:22:43Z</time>
      </trkpt>
      <trkpt lat="44.04441" lon="5.18298">
        <ele>351.0184326</ele>
        <time>2015-10-10T08:22:53Z</time>
      </trkpt>
      <trkpt lat="44.04438" lon="5.18283">
        <ele>353.421875</ele>
        <time>2015-10-10T08:22:59Z</time>
      </trkpt>
      <trkpt lat="44.04438" lon="5.18278">
        <ele>354.8637695</ele>
        <time>2015-10-10T08:23:02Z</time>
      </trkpt>
      <trkpt lat="44.04447" lon="5.18253">
        <ele>358.2283936</ele>
        <time>2015-10-10T08:23:12Z</time>
      </trkpt>
      <trkpt lat="44.04462" lon="5.18217">
        <ele>361.1124268</ele>
        <time>2015-10-10T08:23:23Z</time>
      </trkpt>
      <trkpt lat="44.04469" lon="5.18183">
        <ele>360.6317139</ele>
        <time>2015-10-10T08:23:34Z</time>
      </trkpt>
      <trkpt lat="44.04477" lon="5.18156">
        <ele>361.5931396</ele>
        <time>2015-10-10T08:23:42Z</time>
      </trkpt>
      <trkpt lat="44.04473" lon="5.18147">
        <ele>357.2670898</ele>
        <time>2015-10-10T08:23:45Z</time>
      </trkpt>
      <trkpt lat="44.04488" lon="5.18117">
        <ele>357.2670898</ele>
        <time>2015-10-10T08:23:54Z</time>
      </trkpt>
      <trkpt lat="44.04491" lon="5.181">
        <ele>354.3831787</ele>
        <time>2015-10-10T08:24:00Z</time>
      </trkpt>
      <trkpt lat="44.04498" lon="5.18085">
        <ele>353.9025879</ele>
        <time>2015-10-10T08:24:05Z</time>
      </trkpt>
      <trkpt lat="44.04499" lon="5.18076">
        <ele>353.9025879</ele>
        <time>2015-10-10T08:24:07Z</time>
      </trkpt>
      <trkpt lat="44.04525" lon="5.18031">
        <ele>352.9411621</ele>
        <time>2015-10-10T08:24:19Z</time>
      </trkpt>
      <trkpt lat="44.04525" lon="5.18026">
        <ele>350.057251</ele>
        <time>2015-10-10T08:24:20Z</time>
      </trkpt>
      <trkpt lat="44.04529" lon="5.18018">
        <ele>351.0184326</ele>
        <time>2015-10-10T08:24:23Z</time>
      </trkpt>
      <trkpt lat="44.04542" lon="5.18008">
        <ele>348.6152344</ele>
        <time>2015-10-10T08:24:29Z</time>
      </trkpt>
      <trkpt lat="44.04564" lon="5.17973">
        <ele>346.692627</ele>
        <time>2015-10-10T08:24:38Z</time>
      </trkpt>
      <trkpt lat="44.04584" lon="5.17947">
        <ele>346.2120361</ele>
        <time>2015-10-10T08:24:45Z</time>
      </trkpt>
      <trkpt lat="44.0459" lon="5.17936">
        <ele>345.7313232</ele>
        <time>2015-10-10T08:24:48Z</time>
      </trkpt>
      <trkpt lat="44.04616" lon="5.17913">
        <ele>342.84729</ele>
        <time>2015-10-10T08:24:59Z</time>
      </trkpt>
      <trkpt lat="44.04638" lon="5.17891">
        <ele>339.0020752</ele>
        <time>2015-10-10T08:25:08Z</time>
      </trkpt>
      <trkpt lat="44.04643" lon="5.17863">
        <ele>338.0407715</ele>
        <time>2015-10-10T08:25:18Z</time>
      </trkpt>
      <trkpt lat="44.04645" lon="5.17857">
        <ele>338.0407715</ele>
        <time>2015-10-10T08:25:20Z</time>
      </trkpt>
      <trkpt lat="44.04645" lon="5.17847">
        <ele>337.0794678</ele>
        <time>2015-10-10T08:25:29Z</time>
      </trkpt>
      <trkpt lat="44.04643" lon="5.17843">
        <ele>338.0407715</ele>
        <time>2015-10-10T08:25:46Z</time>
      </trkpt>
      <trkpt lat="44.04636" lon="5.17836">
        <ele>339.9633789</ele>
        <time>2015-10-10T08:26:00Z</time>
      </trkpt>
      <trkpt lat="44.04633" lon="5.17822">
        <ele>341.8859863</ele>
        <time>2015-10-10T08:26:15Z</time>
      </trkpt>
      <trkpt lat="44.04634" lon="5.17813">
        <ele>342.84729</ele>
        <time>2015-10-10T08:26:23Z</time>
      </trkpt>
      <trkpt lat="44.04635" lon="5.17801">
        <ele>340.9246826</ele>
        <time>2015-10-10T08:26:35Z</time>
      </trkpt>
      <trkpt lat="44.04628" lon="5.17796">
        <ele>342.84729</ele>
        <time>2015-10-10T08:26:46Z</time>
      </trkpt>
      <trkpt lat="44.04628" lon="5.17796">
        <ele>343.8085938</ele>
        <time>2015-10-10T08:27:25Z</time>
      </trkpt>
      <trkpt lat="44.04629" lon="5.17795">
        <ele>343.8085938</ele>
        <time>2015-10-10T08:27:35Z</time>
      </trkpt>
      <trkpt lat="44.04646" lon="5.17792">
        <ele>346.692627</ele>
        <time>2015-10-10T08:27:44Z</time>
      </trkpt>
      <trkpt lat="44.04651" lon="5.17791">
        <ele>348.1346436</ele>
        <time>2015-10-10T08:27:52Z</time>
      </trkpt>
      <trkpt lat="44.04652" lon="5.17789">
        <ele>348.1346436</ele>
        <time>2015-10-10T08:27:54Z</time>
      </trkpt>
      <trkpt lat="44.04659" lon="5.1778">
        <ele>352.4605713</ele>
        <time>2015-10-10T08:28:09Z</time>
      </trkpt>
      <trkpt lat="44.04662" lon="5.17778">
        <ele>352.4605713</ele>
        <time>2015-10-10T08:28:12Z</time>
      </trkpt>
      <trkpt lat="44.04669" lon="5.17778">
        <ele>352.4605713</ele>
        <time>2015-10-10T08:28:16Z</time>
      </trkpt>
      <trkpt lat="44.04688" lon="5.17775">
        <ele>353.9025879</ele>
        <time>2015-10-10T08:28:27Z</time>
      </trkpt>
      <trkpt lat="44.04701" lon="5.17765">
        <ele>356.3057861</ele>
        <time>2015-10-10T08:28:38Z</time>
      </trkpt>
      <trkpt lat="44.04707" lon="5.17761">
        <ele>358.2283936</ele>
        <time>2015-10-10T08:28:50Z</time>
      </trkpt>
      <trkpt lat="44.04714" lon="5.17754">
        <ele>358.2283936</ele>
        <time>2015-10-10T08:29:05Z</time>
      </trkpt>
      <trkpt lat="44.04714" lon="5.17753">
        <ele>358.2283936</ele>
        <time>2015-10-10T08:29:21Z</time>
      </trkpt>
      <trkpt lat="44.04717" lon="5.1775">
        <ele>360.151123</ele>
        <time>2015-10-10T08:29:25Z</time>
      </trkpt>
      <trkpt lat="44.04723" lon="5.17739">
        <ele>361.1124268</ele>
        <time>2015-10-10T08:29:30Z</time>
      </trkpt>
      <trkpt lat="44.04727" lon="5.17733">
        <ele>361.5931396</ele>
        <time>2015-10-10T08:29:33Z</time>
      </trkpt>
      <trkpt lat="44.04748" lon="5.1772">
        <ele>363.5157471</ele>
        <time>2015-10-10T08:29:45Z</time>
      </trkpt>
      <trkpt lat="44.04754" lon="5.17717">
        <ele>362.5543213</ele>
        <time>2015-10-10T08:29:47Z</time>
      </trkpt>
      <trkpt lat="44.04766" lon="5.1771">
        <ele>361.1124268</ele>
        <time>2015-10-10T08:29:52Z</time>
      </trkpt>
      <trkpt lat="44.04781" lon="5.17679">
        <ele>355.8251953</ele>
        <time>2015-10-10T08:30:00Z</time>
      </trkpt>
      <trkpt lat="44.04785" lon="5.1767">
        <ele>354.3831787</ele>
        <time>2015-10-10T08:30:02Z</time>
      </trkpt>
      <trkpt lat="44.04779" lon="5.17653">
        <ele>352.9411621</ele>
        <time>2015-10-10T08:30:07Z</time>
      </trkpt>
      <trkpt lat="44.04773" lon="5.17642">
        <ele>352.4605713</ele>
        <time>2015-10-10T08:30:11Z</time>
      </trkpt>
      <trkpt lat="44.04772" lon="5.17629">
        <ele>351.0184326</ele>
        <time>2015-10-10T08:30:14Z</time>
      </trkpt>
      <trkpt lat="44.04765" lon="5.1762">
        <ele>350.5378418</ele>
        <time>2015-10-10T08:30:17Z</time>
      </trkpt>
      <trkpt lat="44.04765" lon="5.17604">
        <ele>348.6152344</ele>
        <time>2015-10-10T08:30:21Z</time>
      </trkpt>
      <trkpt lat="44.04763" lon="5.17584">
        <ele>345.7313232</ele>
        <time>2015-10-10T08:30:30Z</time>
      </trkpt>
      <trkpt lat="44.04772" lon="5.17567">
        <ele>344.2894287</ele>
        <time>2015-10-10T08:30:37Z</time>
      </trkpt>
      <trkpt lat="44.04776" lon="5.17561">
        <ele>343.3278809</ele>
        <time>2015-10-10T08:30:40Z</time>
      </trkpt>
      <trkpt lat="44.04778" lon="5.1754">
        <ele>341.4052734</ele>
        <time>2015-10-10T08:30:46Z</time>
      </trkpt>
      <trkpt lat="44.0478" lon="5.17535">
        <ele>339.9633789</ele>
        <time>2015-10-10T08:30:48Z</time>
      </trkpt>
      <trkpt lat="44.04774" lon="5.17518">
        <ele>339.482666</ele>
        <time>2015-10-10T08:30:55Z</time>
      </trkpt>
      <trkpt lat="44.04774" lon="5.17499">
        <ele>337.5600586</ele>
        <time>2015-10-10T08:30:59Z</time>
      </trkpt>
      <trkpt lat="44.04771" lon="5.17489">
        <ele>336.598877</ele>
        <time>2015-10-10T08:31:01Z</time>
      </trkpt>
      <trkpt lat="44.04776" lon="5.17461">
        <ele>336.1181641</ele>
        <time>2015-10-10T08:31:07Z</time>
      </trkpt>
      <trkpt lat="44.04777" lon="5.17456">
        <ele>335.6373291</ele>
        <time>2015-10-10T08:31:08Z</time>
      </trkpt>
      <trkpt lat="44.04781" lon="5.17406">
        <ele>331.3115234</ele>
        <time>2015-10-10T08:31:18Z</time>
      </trkpt>
      <trkpt lat="44.04781" lon="5.17401">
        <ele>330.8309326</ele>
        <time>2015-10-10T08:31:19Z</time>
      </trkpt>
      <trkpt lat="44.04779" lon="5.17384">
        <ele>329.8695068</ele>
        <time>2015-10-10T08:31:22Z</time>
      </trkpt>
      <trkpt lat="44.04784" lon="5.17363">
        <ele>328.4276123</ele>
        <time>2015-10-10T08:31:27Z</time>
      </trkpt>
      <trkpt lat="44.04799" lon="5.17355">
        <ele>325.0629883</ele>
        <time>2015-10-10T08:31:35Z</time>
      </trkpt>
      <trkpt lat="44.04802" lon="5.17354">
        <ele>324.1015625</ele>
        <time>2015-10-10T08:31:38Z</time>
      </trkpt>
      <trkpt lat="44.04814" lon="5.17345">
        <ele>321.6983643</ele>
        <time>2015-10-10T08:31:44Z</time>
      </trkpt>
      <trkpt lat="44.04817" lon="5.17336">
        <ele>320.7370605</ele>
        <time>2015-10-10T08:31:46Z</time>
      </trkpt>
      <trkpt lat="44.04823" lon="5.17321">
        <ele>320.2563477</ele>
        <time>2015-10-10T08:31:50Z</time>
      </trkpt>
      <trkpt lat="44.04825" lon="5.17312">
        <ele>318.8143311</ele>
        <time>2015-10-10T08:31:52Z</time>
      </trkpt>
      <trkpt lat="44.04825" lon="5.17302">
        <ele>318.3336182</ele>
        <time>2015-10-10T08:31:56Z</time>
      </trkpt>
      <trkpt lat="44.04822" lon="5.17294">
        <ele>317.3724365</ele>
        <time>2015-10-10T08:31:58Z</time>
      </trkpt>
      <trkpt lat="44.04821" lon="5.17278">
        <ele>314.9691162</ele>
        <time>2015-10-10T08:32:02Z</time>
      </trkpt>
      <trkpt lat="44.04816" lon="5.17268">
        <ele>315.4498291</ele>
        <time>2015-10-10T08:32:06Z</time>
      </trkpt>
      <trkpt lat="44.04817" lon="5.17259">
        <ele>316.8917236</ele>
        <time>2015-10-10T08:32:09Z</time>
      </trkpt>
      <trkpt lat="44.04821" lon="5.1723">
        <ele>314.0078125</ele>
        <time>2015-10-10T08:32:17Z</time>
      </trkpt>
      <trkpt lat="44.04822" lon="5.17211">
        <ele>313.5272217</ele>
        <time>2015-10-10T08:32:23Z</time>
      </trkpt>
      <trkpt lat="44.04819" lon="5.17184">
        <ele>308.720459</ele>
        <time>2015-10-10T08:32:30Z</time>
      </trkpt>
      <trkpt lat="44.0482" lon="5.17174">
        <ele>308.2398682</ele>
        <time>2015-10-10T08:32:33Z</time>
      </trkpt>
      <trkpt lat="44.04822" lon="5.17171">
        <ele>309.6818848</ele>
        <time>2015-10-10T08:32:44Z</time>
      </trkpt>
      <trkpt lat="44.04825" lon="5.17168">
        <ele>308.2398682</ele>
        <time>2015-10-10T08:32:49Z</time>
      </trkpt>
      <trkpt lat="44.04828" lon="5.1716">
        <ele>306.7978516</ele>
        <time>2015-10-10T08:32:53Z</time>
      </trkpt>
      <trkpt lat="44.04835" lon="5.17154">
        <ele>304.8752441</ele>
        <time>2015-10-10T08:32:57Z</time>
      </trkpt>
      <trkpt lat="44.0484" lon="5.17144">
        <ele>303.4332275</ele>
        <time>2015-10-10T08:33:01Z</time>
      </trkpt>
      <trkpt lat="44.04837" lon="5.17141">
        <ele>301.991333</ele>
        <time>2015-10-10T08:33:04Z</time>
      </trkpt>
      <trkpt lat="44.04831" lon="5.17134">
        <ele>301.991333</ele>
        <time>2015-10-10T08:33:08Z</time>
      </trkpt>
      <trkpt lat="44.04833" lon="5.17126">
        <ele>301.991333</ele>
        <time>2015-10-10T08:33:12Z</time>
      </trkpt>
      <trkpt lat="44.04855" lon="5.17115">
        <ele>298.1461182</ele>
        <time>2015-10-10T08:33:22Z</time>
      </trkpt>
      <trkpt lat="44.04867" lon="5.17115">
        <ele>297.1846924</ele>
        <time>2015-10-10T08:33:26Z</time>
      </trkpt>
      <trkpt lat="44.04874" lon="5.17116">
        <ele>297.1846924</ele>
        <time>2015-10-10T08:33:28Z</time>
      </trkpt>
      <trkpt lat="44.04884" lon="5.17107">
        <ele>296.7041016</ele>
        <time>2015-10-10T08:33:33Z</time>
      </trkpt>
      <trkpt lat="44.04893" lon="5.17107">
        <ele>294.7813721</ele>
        <time>2015-10-10T08:33:37Z</time>
      </trkpt>
      <trkpt lat="44.04922" lon="5.17102">
        <ele>289.4941406</ele>
        <time>2015-10-10T08:33:45Z</time>
      </trkpt>
      <trkpt lat="44.04934" lon="5.17107">
        <ele>288.532959</ele>
        <time>2015-10-10T08:33:48Z</time>
      </trkpt>
      <trkpt lat="44.04958" lon="5.17097">
        <ele>285.1682129</ele>
        <time>2015-10-10T08:33:56Z</time>
      </trkpt>
      <trkpt lat="44.04979" lon="5.17095">
        <ele>282.2843018</ele>
        <time>2015-10-10T08:34:04Z</time>
      </trkpt>
      <trkpt lat="44.04981" lon="5.17094">
        <ele>281.8035889</ele>
        <time>2015-10-10T08:34:06Z</time>
      </trkpt>
      <trkpt lat="44.04989" lon="5.17092">
        <ele>280.3616943</ele>
        <time>2015-10-10T08:34:15Z</time>
      </trkpt>
      <trkpt lat="44.04991" lon="5.1709">
        <ele>280.8424072</ele>
        <time>2015-10-10T08:34:43Z</time>
      </trkpt>
      <trkpt lat="44.04995" lon="5.17085">
        <ele>278.4389648</ele>
        <time>2015-10-10T08:34:52Z</time>
      </trkpt>
      <trkpt lat="44.05001" lon="5.17076">
        <ele>276.9970703</ele>
        <time>2015-10-10T08:35:04Z</time>
      </trkpt>
      <trkpt lat="44.05007" lon="5.17074">
        <ele>275.5550537</ele>
        <time>2015-10-10T08:35:15Z</time>
      </trkpt>
      <trkpt lat="44.05002" lon="5.17076">
        <ele>276.0356445</ele>
        <time>2015-10-10T08:35:52Z</time>
      </trkpt>
      <trkpt lat="44.04996" lon="5.17084">
        <ele>277.958252</ele>
        <time>2015-10-10T08:36:06Z</time>
      </trkpt>
      <trkpt lat="44.04994" lon="5.17092">
        <ele>278.9196777</ele>
        <time>2015-10-10T08:36:20Z</time>
      </trkpt>
      <trkpt lat="44.04994" lon="5.17094">
        <ele>278.4389648</ele>
        <time>2015-10-10T08:36:43Z</time>
      </trkpt>
      <trkpt lat="44.04996" lon="5.17119">
        <ele>275.0744629</ele>
        <time>2015-10-10T08:36:52Z</time>
      </trkpt>
      <trkpt lat="44.04995" lon="5.17134">
        <ele>274.1130371</ele>
        <time>2015-10-10T08:36:56Z</time>
      </trkpt>
      <trkpt lat="44.04991" lon="5.17169">
        <ele>271.7097168</ele>
        <time>2015-10-10T08:37:03Z</time>
      </trkpt>
      <trkpt lat="44.04995" lon="5.1717">
        <ele>272.1904297</ele>
        <time>2015-10-10T08:37:08Z</time>
      </trkpt>
      <trkpt lat="44.05" lon="5.17137">
        <ele>271.229126</ele>
        <time>2015-10-10T08:37:19Z</time>
      </trkpt>
      <trkpt lat="44.05013" lon="5.17103">
        <ele>269.7871094</ele>
        <time>2015-10-10T08:37:29Z</time>
      </trkpt>
      <trkpt lat="44.05023" lon="5.17087">
        <ele>267.3839111</ele>
        <time>2015-10-10T08:37:36Z</time>
      </trkpt>
      <trkpt lat="44.05026" lon="5.17082">
        <ele>265.4613037</ele>
        <time>2015-10-10T08:37:39Z</time>
      </trkpt>
      <trkpt lat="44.05029" lon="5.17081">
        <ele>264.4998779</ele>
        <time>2015-10-10T08:37:41Z</time>
      </trkpt>
      <trkpt lat="44.05034" lon="5.17083">
        <ele>262.0965576</ele>
        <time>2015-10-10T08:37:44Z</time>
      </trkpt>
      <trkpt lat="44.05042" lon="5.17079">
        <ele>260.654541</ele>
        <time>2015-10-10T08:37:48Z</time>
      </trkpt>
      <trkpt lat="44.05047" lon="5.1707">
        <ele>258.2513428</ele>
        <time>2015-10-10T08:37:52Z</time>
      </trkpt>
      <trkpt lat="44.05046" lon="5.17061">
        <ele>256.8093262</ele>
        <time>2015-10-10T08:37:57Z</time>
      </trkpt>
      <trkpt lat="44.05052" lon="5.17059">
        <ele>256.8093262</ele>
        <time>2015-10-10T08:38:01Z</time>
      </trkpt>
      <trkpt lat="44.0506" lon="5.17042">
        <ele>254.8865967</ele>
        <time>2015-10-10T08:38:09Z</time>
      </trkpt>
      <trkpt lat="44.0506" lon="5.17037">
        <ele>254.8865967</ele>
        <time>2015-10-10T08:38:11Z</time>
      </trkpt>
      <trkpt lat="44.05062" lon="5.17016">
        <ele>252.0028076</ele>
        <time>2015-10-10T08:38:16Z</time>
      </trkpt>
      <trkpt lat="44.05064" lon="5.17007">
        <ele>251.0413818</ele>
        <time>2015-10-10T08:38:18Z</time>
      </trkpt>
      <trkpt lat="44.05061" lon="5.16986">
        <ele>247.6767578</ele>
        <time>2015-10-10T08:38:24Z</time>
      </trkpt>
      <trkpt lat="44.05065" lon="5.16977">
        <ele>247.1960449</ele>
        <time>2015-10-10T08:38:29Z</time>
      </trkpt>
      <trkpt lat="44.05065" lon="5.16974">
        <ele>246.2348633</ele>
        <time>2015-10-10T08:38:31Z</time>
      </trkpt>
      <trkpt lat="44.05066" lon="5.16964">
        <ele>244.3122559</ele>
        <time>2015-10-10T08:38:41Z</time>
      </trkpt>
      <trkpt lat="44.05067" lon="5.16949">
        <ele>240.467041</ele>
        <time>2015-10-10T08:38:48Z</time>
      </trkpt>
      <trkpt lat="44.05074" lon="5.16929">
        <ele>236.1409912</ele>
        <time>2015-10-10T08:38:56Z</time>
      </trkpt>
      <trkpt lat="44.05074" lon="5.16928">
        <ele>236.1409912</ele>
        <time>2015-10-10T08:39:13Z</time>
      </trkpt>
      <trkpt lat="44.05074" lon="5.16921">
        <ele>236.1409912</ele>
        <time>2015-10-10T08:40:30Z</time>
      </trkpt>
      <trkpt lat="44.05072" lon="5.1692">
        <ele>235.6602783</ele>
        <time>2015-10-10T08:41:07Z</time>
      </trkpt>
      <trkpt lat="44.05072" lon="5.16914">
        <ele>236.6217041</ele>
        <time>2015-10-10T08:41:38Z</time>
      </trkpt>
      <trkpt lat="44.0507" lon="5.1692">
        <ele>237.1022949</ele>
        <time>2015-10-10T08:42:00Z</time>
      </trkpt>
      <trkpt lat="44.05068" lon="5.1692">
        <ele>235.6602783</ele>
        <time>2015-10-10T08:42:20Z</time>
      </trkpt>
      <trkpt lat="44.05067" lon="5.16919">
        <ele>235.6602783</ele>
        <time>2015-10-10T08:43:01Z</time>
      </trkpt>
      <trkpt lat="44.05038" lon="5.16899">
        <ele>234.2183838</ele>
        <time>2015-10-10T08:43:12Z</time>
      </trkpt>
      <trkpt lat="44.05004" lon="5.16871">
        <ele>233.7376709</ele>
        <time>2015-10-10T08:43:23Z</time>
      </trkpt>
      <trkpt lat="44.04979" lon="5.16848">
        <ele>235.1796875</ele>
        <time>2015-10-10T08:43:34Z</time>
      </trkpt>
      <trkpt lat="44.04968" lon="5.16812">
        <ele>235.1796875</ele>
        <time>2015-10-10T08:43:42Z</time>
      </trkpt>
      <trkpt lat="44.04964" lon="5.16793">
        <ele>235.1796875</ele>
        <time>2015-10-10T08:43:46Z</time>
      </trkpt>
      <trkpt lat="44.04963" lon="5.16767">
        <ele>234.6990967</ele>
        <time>2015-10-10T08:43:53Z</time>
      </trkpt>
      <trkpt lat="44.04961" lon="5.16763">
        <ele>234.2183838</ele>
        <time>2015-10-10T08:43:54Z</time>
      </trkpt>
      <trkpt lat="44.04947" lon="5.16723">
        <ele>234.2183838</ele>
        <time>2015-10-10T08:44:06Z</time>
      </trkpt>
      <trkpt lat="44.04935" lon="5.16701">
        <ele>233.2570801</ele>
        <time>2015-10-10T08:44:11Z</time>
      </trkpt>
      <trkpt lat="44.04923" lon="5.1667">
        <ele>230.8537598</ele>
        <time>2015-10-10T08:44:18Z</time>
      </trkpt>
      <trkpt lat="44.04919" lon="5.16662">
        <ele>230.8537598</ele>
        <time>2015-10-10T08:44:20Z</time>
      </trkpt>
      <trkpt lat="44.04892" lon="5.16621">
        <ele>228.9311523</ele>
        <time>2015-10-10T08:44:31Z</time>
      </trkpt>
      <trkpt lat="44.04881" lon="5.16605">
        <ele>227.9697266</ele>
        <time>2015-10-10T08:44:34Z</time>
      </trkpt>
      <trkpt lat="44.04875" lon="5.16577">
        <ele>227.9697266</ele>
        <time>2015-10-10T08:44:39Z</time>
      </trkpt>
      <trkpt lat="44.04879" lon="5.16557">
        <ele>225.0859375</ele>
        <time>2015-10-10T08:44:44Z</time>
      </trkpt>
      <trkpt lat="44.04874" lon="5.16541">
        <ele>224.6052246</ele>
        <time>2015-10-10T08:44:49Z</time>
      </trkpt>
      <trkpt lat="44.04871" lon="5.16527">
        <ele>223.6437988</ele>
        <time>2015-10-10T08:44:52Z</time>
      </trkpt>
      <trkpt lat="44.04859" lon="5.16479">
        <ele>216.43396</ele>
        <time>2015-10-10T08:45:01Z</time>
      </trkpt>
      <trkpt lat="44.04838" lon="5.16445">
        <ele>216.43396</ele>
        <time>2015-10-10T08:45:10Z</time>
      </trkpt>
      <trkpt lat="44.04836" lon="5.16443">
        <ele>216.43396</ele>
        <time>2015-10-10T08:45:13Z</time>
      </trkpt>
      <trkpt lat="44.04835" lon="5.16437">
        <ele>215.9532471</ele>
        <time>2015-10-10T08:45:17Z</time>
      </trkpt>
      <trkpt lat="44.04824" lon="5.16421">
        <ele>214.0306396</ele>
        <time>2015-10-10T08:45:24Z</time>
      </trkpt>
      <trkpt lat="44.04822" lon="5.16419">
        <ele>214.0306396</ele>
        <time>2015-10-10T08:45:26Z</time>
      </trkpt>
      <trkpt lat="44.04821" lon="5.16405">
        <ele>211.1467285</ele>
        <time>2015-10-10T08:45:34Z</time>
      </trkpt>
      <trkpt lat="44.04801" lon="5.16384">
        <ele>206.8206787</ele>
        <time>2015-10-10T08:45:42Z</time>
      </trkpt>
      <trkpt lat="44.04795" lon="5.16383">
        <ele>205.8594971</ele>
        <time>2015-10-10T08:45:56Z</time>
      </trkpt>
      <trkpt lat="44.04795" lon="5.1638">
        <ele>206.3400879</ele>
        <time>2015-10-10T08:46:12Z</time>
      </trkpt>
      <trkpt lat="44.048" lon="5.16371">
        <ele>206.3400879</ele>
        <time>2015-10-10T08:46:47Z</time>
      </trkpt>
      <trkpt lat="44.04801" lon="5.1637">
        <ele>206.8206787</ele>
        <time>2015-10-10T08:46:50Z</time>
      </trkpt>
      <trkpt lat="44.04805" lon="5.16365">
        <ele>206.8206787</ele>
        <time>2015-10-10T08:46:54Z</time>
      </trkpt>
      <trkpt lat="44.04795" lon="5.16365">
        <ele>204.8980713</ele>
        <time>2015-10-10T08:47:04Z</time>
      </trkpt>
      <trkpt lat="44.0479" lon="5.16366">
        <ele>203.4561768</ele>
        <time>2015-10-10T08:47:12Z</time>
      </trkpt>
      <trkpt lat="44.04784" lon="5.1636">
        <ele>202.9754639</ele>
        <time>2015-10-10T08:47:19Z</time>
      </trkpt>
      <trkpt lat="44.04784" lon="5.1635">
        <ele>203.9368896</ele>
        <time>2015-10-10T08:47:31Z</time>
      </trkpt>
      <trkpt lat="44.04788" lon="5.16347">
        <ele>203.9368896</ele>
        <time>2015-10-10T08:47:34Z</time>
      </trkpt>
      <trkpt lat="44.04797" lon="5.16333">
        <ele>205.3787842</ele>
        <time>2015-10-10T08:47:43Z</time>
      </trkpt>
      <trkpt lat="44.04819" lon="5.16321">
        <ele>207.3013916</ele>
        <time>2015-10-10T08:47:54Z</time>
      </trkpt>
      <trkpt lat="44.04826" lon="5.16314">
        <ele>210.1854248</ele>
        <time>2015-10-10T08:48:02Z</time>
      </trkpt>
      <trkpt lat="44.04828" lon="5.16307">
        <ele>207.7821045</ele>
        <time>2015-10-10T08:48:20Z</time>
      </trkpt>
      <trkpt lat="44.04829" lon="5.16303">
        <ele>210.1854248</ele>
        <time>2015-10-10T08:48:33Z</time>
      </trkpt>
      <trkpt lat="44.04831" lon="5.16296">
        <ele>210.6660156</ele>
        <time>2015-10-10T08:48:41Z</time>
      </trkpt>
      <trkpt lat="44.04833" lon="5.16286">
        <ele>211.6274414</ele>
        <time>2015-10-10T08:48:54Z</time>
      </trkpt>
      <trkpt lat="44.04829" lon="5.16283">
        <ele>213.0693359</ele>
        <time>2015-10-10T08:49:08Z</time>
      </trkpt>
      <trkpt lat="44.04835" lon="5.16273">
        <ele>213.0693359</ele>
        <time>2015-10-10T08:49:22Z</time>
      </trkpt>
      <trkpt lat="44.04845" lon="5.16262">
        <ele>211.6274414</ele>
        <time>2015-10-10T08:49:27Z</time>
      </trkpt>
      <trkpt lat="44.04849" lon="5.16251">
        <ele>211.1467285</ele>
        <time>2015-10-10T08:49:34Z</time>
      </trkpt>
      <trkpt lat="44.04844" lon="5.16246">
        <ele>213.0693359</ele>
        <time>2015-10-10T08:49:44Z</time>
      </trkpt>
      <trkpt lat="44.04841" lon="5.16246">
        <ele>215.9532471</ele>
        <time>2015-10-10T08:50:09Z</time>
      </trkpt>
      <trkpt lat="44.04837" lon="5.1625">
        <ele>217.8759766</ele>
        <time>2015-10-10T08:50:21Z</time>
      </trkpt>
      <trkpt lat="44.04829" lon="5.16252">
        <ele>219.3179932</ele>
        <time>2015-10-10T08:50:36Z</time>
      </trkpt>
      <trkpt lat="44.04824" lon="5.16253">
        <ele>221.7211914</ele>
        <time>2015-10-10T08:50:49Z</time>
      </trkpt>
      <trkpt lat="44.04812" lon="5.1626">
        <ele>226.527832</ele>
        <time>2015-10-10T08:51:06Z</time>
      </trkpt>
      <trkpt lat="44.04805" lon="5.16262">
        <ele>226.527832</ele>
        <time>2015-10-10T08:51:23Z</time>
      </trkpt>
      <trkpt lat="44.04803" lon="5.16264">
        <ele>226.527832</ele>
        <time>2015-10-10T08:51:33Z</time>
      </trkpt>
      <trkpt lat="44.04789" lon="5.16263">
        <ele>227.4891357</ele>
        <time>2015-10-10T08:51:48Z</time>
      </trkpt>
      <trkpt lat="44.04781" lon="5.16257">
        <ele>229.4117432</ele>
        <time>2015-10-10T08:52:01Z</time>
      </trkpt>
      <trkpt lat="44.04773" lon="5.16253">
        <ele>229.4117432</ele>
        <time>2015-10-10T08:52:14Z</time>
      </trkpt>
      <trkpt lat="44.04756" lon="5.16269">
        <ele>229.892334</ele>
        <time>2015-10-10T08:52:25Z</time>
      </trkpt>
      <trkpt lat="44.04737" lon="5.16294">
        <ele>231.3343506</ele>
        <time>2015-10-10T08:52:38Z</time>
      </trkpt>
      <trkpt lat="44.04717" lon="5.16298">
        <ele>232.2957764</ele>
        <time>2015-10-10T08:52:48Z</time>
      </trkpt>
      <trkpt lat="44.04713" lon="5.16298">
        <ele>232.2957764</ele>
        <time>2015-10-10T08:52:50Z</time>
      </trkpt>
      <trkpt lat="44.04692" lon="5.16325">
        <ele>234.6990967</ele>
        <time>2015-10-10T08:53:04Z</time>
      </trkpt>
      <trkpt lat="44.04673" lon="5.16354">
        <ele>235.1796875</ele>
        <time>2015-10-10T08:53:18Z</time>
      </trkpt>
      <trkpt lat="44.04649" lon="5.16383">
        <ele>237.5828857</ele>
        <time>2015-10-10T08:53:34Z</time>
      </trkpt>
      <trkpt lat="44.04627" lon="5.164">
        <ele>240.9476318</ele>
        <time>2015-10-10T08:53:47Z</time>
      </trkpt>
      <trkpt lat="44.04615" lon="5.16435">
        <ele>235.6602783</ele>
        <time>2015-10-10T08:54:02Z</time>
      </trkpt>
      <trkpt lat="44.046" lon="5.16464">
        <ele>236.6217041</ele>
        <time>2015-10-10T08:54:13Z</time>
      </trkpt>
      <trkpt lat="44.04575" lon="5.16491">
        <ele>240.467041</ele>
        <time>2015-10-10T08:54:25Z</time>
      </trkpt>
      <trkpt lat="44.0457" lon="5.16501">
        <ele>240.467041</ele>
        <time>2015-10-10T08:54:29Z</time>
      </trkpt>
      <trkpt lat="44.04559" lon="5.16497">
        <ele>243.3508301</ele>
        <time>2015-10-10T08:54:35Z</time>
      </trkpt>
      <trkpt lat="44.04553" lon="5.16496">
        <ele>243.831543</ele>
        <time>2015-10-10T08:54:38Z</time>
      </trkpt>
      <trkpt lat="44.04532" lon="5.16476">
        <ele>246.7154541</ele>
        <time>2015-10-10T08:54:49Z</time>
      </trkpt>
      <trkpt lat="44.04523" lon="5.16469">
        <ele>247.1960449</ele>
        <time>2015-10-10T08:54:52Z</time>
      </trkpt>
      <trkpt lat="44.0452" lon="5.16458">
        <ele>246.7154541</ele>
        <time>2015-10-10T08:54:55Z</time>
      </trkpt>
      <trkpt lat="44.04505" lon="5.16445">
        <ele>246.7154541</ele>
        <time>2015-10-10T08:55:01Z</time>
      </trkpt>
      <trkpt lat="44.04492" lon="5.16435">
        <ele>246.7154541</ele>
        <time>2015-10-10T08:55:07Z</time>
      </trkpt>
      <trkpt lat="44.04477" lon="5.16425">
        <ele>246.7154541</ele>
        <time>2015-10-10T08:55:13Z</time>
      </trkpt>
      <trkpt lat="44.04462" lon="5.16426">
        <ele>248.1575928</ele>
        <time>2015-10-10T08:55:18Z</time>
      </trkpt>
      <trkpt lat="44.04444" lon="5.16446">
        <ele>249.5994873</ele>
        <time>2015-10-10T08:55:26Z</time>
      </trkpt>
      <trkpt lat="44.04438" lon="5.16443">
        <ele>248.6381836</ele>
        <time>2015-10-10T08:55:28Z</time>
      </trkpt>
      <trkpt lat="44.04403" lon="5.16451">
        <ele>246.2348633</ele>
        <time>2015-10-10T08:55:37Z</time>
      </trkpt>
      <trkpt lat="44.04399" lon="5.16449">
        <ele>245.7541504</ele>
        <time>2015-10-10T08:55:38Z</time>
      </trkpt>
      <trkpt lat="44.04388" lon="5.1644">
        <ele>243.3508301</ele>
        <time>2015-10-10T08:55:41Z</time>
      </trkpt>
      <trkpt lat="44.04351" lon="5.16448">
        <ele>240.467041</ele>
        <time>2015-10-10T08:55:51Z</time>
      </trkpt>
      <trkpt lat="44.04326" lon="5.1648">
        <ele>243.3508301</ele>
        <time>2015-10-10T08:56:00Z</time>
      </trkpt>
      <trkpt lat="44.04313" lon="5.16493">
        <ele>242.8702393</ele>
        <time>2015-10-10T08:56:04Z</time>
      </trkpt>
      <trkpt lat="44.04306" lon="5.16505">
        <ele>241.9089355</ele>
        <time>2015-10-10T08:56:08Z</time>
      </trkpt>
      <trkpt lat="44.04295" lon="5.1649">
        <ele>238.5443115</ele>
        <time>2015-10-10T08:56:15Z</time>
      </trkpt>
      <trkpt lat="44.04286" lon="5.1647">
        <ele>236.6217041</ele>
        <time>2015-10-10T08:56:21Z</time>
      </trkpt>
      <trkpt lat="44.04284" lon="5.16462">
        <ele>235.6602783</ele>
        <time>2015-10-10T08:56:23Z</time>
      </trkpt>
      <trkpt lat="44.04276" lon="5.16448">
        <ele>233.7376709</ele>
        <time>2015-10-10T08:56:28Z</time>
      </trkpt>
      <trkpt lat="44.04273" lon="5.16435">
        <ele>232.2957764</ele>
        <time>2015-10-10T08:56:32Z</time>
      </trkpt>
      <trkpt lat="44.0428" lon="5.16415">
        <ele>229.892334</ele>
        <time>2015-10-10T08:56:37Z</time>
      </trkpt>
      <trkpt lat="44.04285" lon="5.16398">
        <ele>227.4891357</ele>
        <time>2015-10-10T08:56:41Z</time>
      </trkpt>
      <trkpt lat="44.04311" lon="5.16354">
        <ele>222.6824951</ele>
        <time>2015-10-10T08:56:53Z</time>
      </trkpt>
      <trkpt lat="44.04335" lon="5.16328">
        <ele>218.8372803</ele>
        <time>2015-10-10T08:57:01Z</time>
      </trkpt>
      <trkpt lat="44.04352" lon="5.1631">
        <ele>216.43396</ele>
        <time>2015-10-10T08:57:07Z</time>
      </trkpt>
      <trkpt lat="44.04378" lon="5.16283">
        <ele>217.8759766</ele>
        <time>2015-10-10T08:57:16Z</time>
      </trkpt>
      <trkpt lat="44.04387" lon="5.16269">
        <ele>214.9919434</ele>
        <time>2015-10-10T08:57:19Z</time>
      </trkpt>
      <trkpt lat="44.04408" lon="5.16241">
        <ele>211.1467285</ele>
        <time>2015-10-10T08:57:27Z</time>
      </trkpt>
      <trkpt lat="44.04408" lon="5.16216">
        <ele>208.7434082</ele>
        <time>2015-10-10T08:57:35Z</time>
      </trkpt>
      <trkpt lat="44.04406" lon="5.16207">
        <ele>207.7821045</ele>
        <time>2015-10-10T08:57:37Z</time>
      </trkpt>
      <trkpt lat="44.04423" lon="5.16157">
        <ele>205.8594971</ele>
        <time>2015-10-10T08:57:47Z</time>
      </trkpt>
      <trkpt lat="44.04428" lon="5.1614">
        <ele>205.3787842</ele>
        <time>2015-10-10T08:57:50Z</time>
      </trkpt>
      <trkpt lat="44.04446" lon="5.16096">
        <ele>205.3787842</ele>
        <time>2015-10-10T08:57:58Z</time>
      </trkpt>
      <trkpt lat="44.04455" lon="5.16074">
        <ele>204.8980713</ele>
        <time>2015-10-10T08:58:02Z</time>
      </trkpt>
      <trkpt lat="44.04476" lon="5.16025">
        <ele>203.4561768</ele>
        <time>2015-10-10T08:58:11Z</time>
      </trkpt>
      <trkpt lat="44.04499" lon="5.15958">
        <ele>202.9754639</ele>
        <time>2015-10-10T08:58:22Z</time>
      </trkpt>
      <trkpt lat="44.04506" lon="5.15921">
        <ele>201.0528564</ele>
        <time>2015-10-10T08:58:27Z</time>
      </trkpt>
      <trkpt lat="44.04514" lon="5.15899">
        <ele>200.0916748</ele>
        <time>2015-10-10T08:58:30Z</time>
      </trkpt>
      <trkpt lat="44.04566" lon="5.15822">
        <ele>196.2463379</ele>
        <time>2015-10-10T08:58:43Z</time>
      </trkpt>
      <trkpt lat="44.04575" lon="5.15809">
        <ele>194.8043213</ele>
        <time>2015-10-10T08:58:45Z</time>
      </trkpt>
      <trkpt lat="44.0461" lon="5.15748">
        <ele>191.9202881</ele>
        <time>2015-10-10T08:58:56Z</time>
      </trkpt>
      <trkpt lat="44.04619" lon="5.15731">
        <ele>191.4395752</ele>
        <time>2015-10-10T08:58:59Z</time>
      </trkpt>
      <trkpt lat="44.04631" lon="5.15704">
        <ele>190.4783936</ele>
        <time>2015-10-10T08:59:03Z</time>
      </trkpt>
      <trkpt lat="44.04629" lon="5.15684">
        <ele>188.5557861</ele>
        <time>2015-10-10T08:59:07Z</time>
      </trkpt>
      <trkpt lat="44.04633" lon="5.15657">
        <ele>185.6717529</ele>
        <time>2015-10-10T08:59:12Z</time>
      </trkpt>
      <trkpt lat="44.04676" lon="5.15586">
        <ele>183.7490234</ele>
        <time>2015-10-10T08:59:25Z</time>
      </trkpt>
      <trkpt lat="44.04713" lon="5.15527">
        <ele>182.3071289</ele>
        <time>2015-10-10T08:59:38Z</time>
      </trkpt>
      <trkpt lat="44.04749" lon="5.15455">
        <ele>179.4232178</ele>
        <time>2015-10-10T08:59:53Z</time>
      </trkpt>
      <trkpt lat="44.04747" lon="5.15431">
        <ele>178.4619141</ele>
        <time>2015-10-10T08:59:59Z</time>
      </trkpt>
      <trkpt lat="44.04755" lon="5.15424">
        <ele>178.942627</ele>
        <time>2015-10-10T09:00:04Z</time>
      </trkpt>
      <trkpt lat="44.04762" lon="5.15426">
        <ele>177.9812012</ele>
        <time>2015-10-10T09:00:06Z</time>
      </trkpt>
      <trkpt lat="44.0481" lon="5.15424">
        <ele>177.9812012</ele>
        <time>2015-10-10T09:00:18Z</time>
      </trkpt>
      <trkpt lat="44.04815" lon="5.15425">
        <ele>177.9812012</ele>
        <time>2015-10-10T09:00:19Z</time>
      </trkpt>
      <trkpt lat="44.04835" lon="5.15434">
        <ele>178.942627</ele>
        <time>2015-10-10T09:00:24Z</time>
      </trkpt>
      <trkpt lat="44.04841" lon="5.15421">
        <ele>177.0200195</ele>
        <time>2015-10-10T09:00:29Z</time>
      </trkpt>
      <trkpt lat="44.04839" lon="5.15392">
        <ele>177.0200195</ele>
        <time>2015-10-10T09:00:35Z</time>
      </trkpt>
      <trkpt lat="44.0485" lon="5.15366">
        <ele>173.1746826</ele>
        <time>2015-10-10T09:00:40Z</time>
      </trkpt>
      <trkpt lat="44.0493" lon="5.15326">
        <ele>169.3294678</ele>
        <time>2015-10-10T09:00:54Z</time>
      </trkpt>
      <trkpt lat="44.04936" lon="5.15323">
        <ele>169.3294678</ele>
        <time>2015-10-10T09:00:55Z</time>
      </trkpt>
      <trkpt lat="44.04943" lon="5.15303">
        <ele>168.368042</ele>
        <time>2015-10-10T09:01:00Z</time>
      </trkpt>
      <trkpt lat="44.04917" lon="5.1522">
        <ele>171.2520752</ele>
        <time>2015-10-10T09:01:16Z</time>
      </trkpt>
      <trkpt lat="44.04917" lon="5.15216">
        <ele>171.2520752</ele>
        <time>2015-10-10T09:01:17Z</time>
      </trkpt>
      <trkpt lat="44.04926" lon="5.15203">
        <ele>171.2520752</ele>
        <time>2015-10-10T09:01:21Z</time>
      </trkpt>
      <trkpt lat="44.0494" lon="5.15192">
        <ele>167.8873291</ele>
        <time>2015-10-10T09:01:25Z</time>
      </trkpt>
      <trkpt lat="44.04984" lon="5.15163">
        <ele>163.5615234</ele>
        <time>2015-10-10T09:01:33Z</time>
      </trkpt>
      <trkpt lat="44.05033" lon="5.15131">
        <ele>163.5615234</ele>
        <time>2015-10-10T09:01:44Z</time>
      </trkpt>
      <trkpt lat="44.05051" lon="5.15126">
        <ele>163.0808105</ele>
        <time>2015-10-10T09:01:48Z</time>
      </trkpt>
      <trkpt lat="44.05091" lon="5.1512">
        <ele>164.5227051</ele>
        <time>2015-10-10T09:01:57Z</time>
      </trkpt>
      <trkpt lat="44.05112" lon="5.15122">
        <ele>165.003418</ele>
        <time>2015-10-10T09:02:02Z</time>
      </trkpt>
      <trkpt lat="44.05192" lon="5.15144">
        <ele>167.4067383</ele>
        <time>2015-10-10T09:02:23Z</time>
      </trkpt>
      <trkpt lat="44.05201" lon="5.15146">
        <ele>168.8487549</ele>
        <time>2015-10-10T09:02:27Z</time>
      </trkpt>
      <trkpt lat="44.05199" lon="5.15168">
        <ele>168.368042</ele>
        <time>2015-10-10T09:02:34Z</time>
      </trkpt>
      <trkpt lat="44.05184" lon="5.15233">
        <ele>167.4067383</ele>
        <time>2015-10-10T09:02:48Z</time>
      </trkpt>
      <trkpt lat="44.05179" lon="5.15249">
        <ele>168.368042</ele>
        <time>2015-10-10T09:02:53Z</time>
      </trkpt>
      <trkpt lat="44.05183" lon="5.15258">
        <ele>167.8873291</ele>
        <time>2015-10-10T09:02:59Z</time>
      </trkpt>
      <trkpt lat="44.05186" lon="5.15259">
        <ele>167.8873291</ele>
        <time>2015-10-10T09:03:01Z</time>
      </trkpt>
      <trkpt lat="44.05189" lon="5.15262">
        <ele>167.8873291</ele>
        <time>2015-10-10T09:03:04Z</time>
      </trkpt>
      <trkpt lat="44.05225" lon="5.15279">
        <ele>170.2906494</ele>
        <time>2015-10-10T09:03:19Z</time>
      </trkpt>
      <trkpt lat="44.05275" lon="5.15298">
        <ele>174.1358643</ele>
        <time>2015-10-10T09:03:37Z</time>
      </trkpt>
      <trkpt lat="44.05314" lon="5.15314">
        <ele>175.5778809</ele>
        <time>2015-10-10T09:03:53Z</time>
      </trkpt>
      <trkpt lat="44.05315" lon="5.15327">
        <ele>176.0585938</ele>
        <time>2015-10-10T09:03:58Z</time>
      </trkpt>
      <trkpt lat="44.05312" lon="5.15366">
        <ele>176.0585938</ele>
        <time>2015-10-10T09:04:14Z</time>
      </trkpt>
      <trkpt lat="44.05309" lon="5.15374">
        <ele>175.5778809</ele>
        <time>2015-10-10T09:04:23Z</time>
      </trkpt>
      <trkpt lat="44.0531" lon="5.15383">
        <ele>176.5393066</ele>
        <time>2015-10-10T09:04:37Z</time>
      </trkpt>
      <trkpt lat="44.05311" lon="5.15382">
        <ele>177.0200195</ele>
        <time>2015-10-10T09:04:41Z</time>
      </trkpt>
      <trkpt lat="44.05316" lon="5.15392">
        <ele>177.5006104</ele>
        <time>2015-10-10T09:04:48Z</time>
      </trkpt>
      <trkpt lat="44.05318" lon="5.15439">
        <ele>178.4619141</ele>
        <time>2015-10-10T09:05:04Z</time>
      </trkpt>
      <trkpt lat="44.05321" lon="5.1549">
        <ele>179.4232178</ele>
        <time>2015-10-10T09:05:21Z</time>
      </trkpt>
      <trkpt lat="44.05323" lon="5.15535">
        <ele>182.3071289</ele>
        <time>2015-10-10T09:05:37Z</time>
      </trkpt>
      <trkpt lat="44.05326" lon="5.15585">
        <ele>185.6717529</ele>
        <time>2015-10-10T09:05:53Z</time>
      </trkpt>
      <trkpt lat="44.05327" lon="5.15628">
        <ele>187.1137695</ele>
        <time>2015-10-10T09:06:06Z</time>
      </trkpt>
      <trkpt lat="44.0533" lon="5.15682">
        <ele>189.036377</ele>
        <time>2015-10-10T09:06:22Z</time>
      </trkpt>
      <trkpt lat="44.05332" lon="5.15736">
        <ele>189.9976807</ele>
        <time>2015-10-10T09:06:36Z</time>
      </trkpt>
      <trkpt lat="44.05333" lon="5.15806">
        <ele>192.401123</ele>
        <time>2015-10-10T09:06:54Z</time>
      </trkpt>
      <trkpt lat="44.05313" lon="5.15878">
        <ele>192.8817139</ele>
        <time>2015-10-10T09:07:13Z</time>
      </trkpt>
      <trkpt lat="44.05302" lon="5.15913">
        <ele>194.3237305</ele>
        <time>2015-10-10T09:07:24Z</time>
      </trkpt>
      <trkpt lat="44.05294" lon="5.1592">
        <ele>195.2849121</ele>
        <time>2015-10-10T09:07:28Z</time>
      </trkpt>
      <trkpt lat="44.05266" lon="5.1593">
        <ele>195.2849121</ele>
        <time>2015-10-10T09:07:39Z</time>
      </trkpt>
      <trkpt lat="44.05256" lon="5.15967">
        <ele>193.3623047</ele>
        <time>2015-10-10T09:07:47Z</time>
      </trkpt>
      <trkpt lat="44.05245" lon="5.16042">
        <ele>194.3237305</ele>
        <time>2015-10-10T09:08:02Z</time>
      </trkpt>
      <trkpt lat="44.05253" lon="5.16063">
        <ele>194.3237305</ele>
        <time>2015-10-10T09:08:11Z</time>
      </trkpt>
      <trkpt lat="44.0526" lon="5.16072">
        <ele>194.8043213</ele>
        <time>2015-10-10T09:08:28Z</time>
      </trkpt>
      <trkpt lat="44.05277" lon="5.16091">
        <ele>197.6882324</ele>
        <time>2015-10-10T09:08:39Z</time>
      </trkpt>
      <trkpt lat="44.053" lon="5.16108">
        <ele>201.0528564</ele>
        <time>2015-10-10T09:08:54Z</time>
      </trkpt>
      <trkpt lat="44.05312" lon="5.16134">
        <ele>202.0142822</ele>
        <time>2015-10-10T09:09:06Z</time>
      </trkpt>
      <trkpt lat="44.05326" lon="5.1616">
        <ele>203.9368896</ele>
        <time>2015-10-10T09:09:19Z</time>
      </trkpt>
      <trkpt lat="44.05333" lon="5.16174">
        <ele>204.4174805</ele>
        <time>2015-10-10T09:09:26Z</time>
      </trkpt>
      <trkpt lat="44.05342" lon="5.16185">
        <ele>204.4174805</ele>
        <time>2015-10-10T09:09:33Z</time>
      </trkpt>
      <trkpt lat="44.0535" lon="5.16204">
        <ele>206.3400879</ele>
        <time>2015-10-10T09:09:42Z</time>
      </trkpt>
      <trkpt lat="44.05366" lon="5.1621">
        <ele>207.7821045</ele>
        <time>2015-10-10T09:09:51Z</time>
      </trkpt>
      <trkpt lat="44.05375" lon="5.16213">
        <ele>208.2628174</ele>
        <time>2015-10-10T09:09:56Z</time>
      </trkpt>
      <trkpt lat="44.05382" lon="5.1621">
        <ele>208.7434082</ele>
        <time>2015-10-10T09:10:00Z</time>
      </trkpt>
      <trkpt lat="44.05395" lon="5.16207">
        <ele>209.704834</ele>
        <time>2015-10-10T09:10:07Z</time>
      </trkpt>
      <trkpt lat="44.05402" lon="5.16216">
        <ele>210.6660156</ele>
        <time>2015-10-10T09:10:12Z</time>
      </trkpt>
      <trkpt lat="44.05403" lon="5.1622">
        <ele>211.1467285</ele>
        <time>2015-10-10T09:10:14Z</time>
      </trkpt>
      <trkpt lat="44.05408" lon="5.16224">
        <ele>211.1467285</ele>
        <time>2015-10-10T09:10:18Z</time>
      </trkpt>
      <trkpt lat="44.05429" lon="5.16228">
        <ele>212.588623</ele>
        <time>2015-10-10T09:10:30Z</time>
      </trkpt>
      <trkpt lat="44.05431" lon="5.16244">
        <ele>214.0306396</ele>
        <time>2015-10-10T09:10:38Z</time>
      </trkpt>
      <trkpt lat="44.05421" lon="5.16262">
        <ele>218.8372803</ele>
        <time>2015-10-10T09:10:49Z</time>
      </trkpt>
      <trkpt lat="44.05414" lon="5.16268">
        <ele>218.8372803</ele>
        <time>2015-10-10T09:10:53Z</time>
      </trkpt>
      <trkpt lat="44.05405" lon="5.16272">
        <ele>219.3179932</ele>
        <time>2015-10-10T09:10:58Z</time>
      </trkpt>
      <trkpt lat="44.05399" lon="5.16278">
        <ele>219.798584</ele>
        <time>2015-10-10T09:11:03Z</time>
      </trkpt>
      <trkpt lat="44.05416" lon="5.16291">
        <ele>217.3953857</ele>
        <time>2015-10-10T09:11:10Z</time>
      </trkpt>
      <trkpt lat="44.05442" lon="5.16299">
        <ele>214.9919434</ele>
        <time>2015-10-10T09:11:15Z</time>
      </trkpt>
      <trkpt lat="44.05493" lon="5.16309">
        <ele>211.6274414</ele>
        <time>2015-10-10T09:11:26Z</time>
      </trkpt>
      <trkpt lat="44.05502" lon="5.16313">
        <ele>213.5500488</ele>
        <time>2015-10-10T09:11:28Z</time>
      </trkpt>
      <trkpt lat="44.05519" lon="5.16316">
        <ele>214.5112305</ele>
        <time>2015-10-10T09:11:32Z</time>
      </trkpt>
      <trkpt lat="44.05552" lon="5.16311">
        <ele>214.5112305</ele>
        <time>2015-10-10T09:11:43Z</time>
      </trkpt>
      <trkpt lat="44.05569" lon="5.16292">
        <ele>217.8759766</ele>
        <time>2015-10-10T09:11:55Z</time>
      </trkpt>
      <trkpt lat="44.05583" lon="5.16281">
        <ele>220.2791748</ele>
        <time>2015-10-10T09:12:06Z</time>
      </trkpt>
      <trkpt lat="44.05583" lon="5.16252">
        <ele>217.3953857</ele>
        <time>2015-10-10T09:12:16Z</time>
      </trkpt>
      <trkpt lat="44.05591" lon="5.16244">
        <ele>216.9146729</ele>
        <time>2015-10-10T09:12:20Z</time>
      </trkpt>
      <trkpt lat="44.05609" lon="5.16253">
        <ele>217.8759766</ele>
        <time>2015-10-10T09:12:31Z</time>
      </trkpt>
      <trkpt lat="44.05615" lon="5.16277">
        <ele>219.798584</ele>
        <time>2015-10-10T09:12:43Z</time>
      </trkpt>
      <trkpt lat="44.05615" lon="5.16284">
        <ele>221.2406006</ele>
        <time>2015-10-10T09:12:47Z</time>
      </trkpt>
      <trkpt lat="44.05635" lon="5.16295">
        <ele>223.163208</ele>
        <time>2015-10-10T09:13:00Z</time>
      </trkpt>
      <trkpt lat="44.05636" lon="5.16296">
        <ele>223.163208</ele>
        <time>2015-10-10T09:13:01Z</time>
      </trkpt>
      <trkpt lat="44.05654" lon="5.16301">
        <ele>224.1245117</ele>
        <time>2015-10-10T09:13:12Z</time>
      </trkpt>
      <trkpt lat="44.05684" lon="5.1631">
        <ele>224.6052246</ele>
        <time>2015-10-10T09:13:27Z</time>
      </trkpt>
      <trkpt lat="44.05706" lon="5.16315">
        <ele>226.0471191</ele>
        <time>2015-10-10T09:13:39Z</time>
      </trkpt>
      <trkpt lat="44.05719" lon="5.16314">
        <ele>227.4891357</ele>
        <time>2015-10-10T09:13:46Z</time>
      </trkpt>
      <trkpt lat="44.05745" lon="5.16323">
        <ele>228.9311523</ele>
        <time>2015-10-10T09:14:02Z</time>
      </trkpt>
      <trkpt lat="44.05772" lon="5.1633">
        <ele>228.4504395</ele>
        <time>2015-10-10T09:14:13Z</time>
      </trkpt>
      <trkpt lat="44.05818" lon="5.16333">
        <ele>226.527832</ele>
        <time>2015-10-10T09:14:27Z</time>
      </trkpt>
      <trkpt lat="44.05847" lon="5.16331">
        <ele>226.0471191</ele>
        <time>2015-10-10T09:14:37Z</time>
      </trkpt>
      <trkpt lat="44.05881" lon="5.16336">
        <ele>225.5665283</ele>
        <time>2015-10-10T09:14:47Z</time>
      </trkpt>
      <trkpt lat="44.05914" lon="5.1635">
        <ele>226.0471191</ele>
        <time>2015-10-10T09:14:59Z</time>
      </trkpt>
      <trkpt lat="44.0595" lon="5.16342">
        <ele>226.527832</ele>
        <time>2015-10-10T09:15:12Z</time>
      </trkpt>
      <trkpt lat="44.05958" lon="5.16346">
        <ele>226.527832</ele>
        <time>2015-10-10T09:15:15Z</time>
      </trkpt>
      <trkpt lat="44.0597" lon="5.16383">
        <ele>228.4504395</ele>
        <time>2015-10-10T09:15:29Z</time>
      </trkpt>
      <trkpt lat="44.05971" lon="5.16386">
        <ele>228.4504395</ele>
        <time>2015-10-10T09:15:30Z</time>
      </trkpt>
      <trkpt lat="44.05979" lon="5.1642">
        <ele>228.9311523</ele>
        <time>2015-10-10T09:15:44Z</time>
      </trkpt>
      <trkpt lat="44.05996" lon="5.16471">
        <ele>229.892334</ele>
        <time>2015-10-10T09:16:01Z</time>
      </trkpt>
      <trkpt lat="44.0601" lon="5.16526">
        <ele>231.3343506</ele>
        <time>2015-10-10T09:16:17Z</time>
      </trkpt>
      <trkpt lat="44.06033" lon="5.16583">
        <ele>231.3343506</ele>
        <time>2015-10-10T09:16:33Z</time>
      </trkpt>
      <trkpt lat="44.06075" lon="5.16639">
        <ele>231.8149414</ele>
        <time>2015-10-10T09:16:50Z</time>
      </trkpt>
      <trkpt lat="44.06111" lon="5.1669">
        <ele>231.8149414</ele>
        <time>2015-10-10T09:17:05Z</time>
      </trkpt>
      <trkpt lat="44.06138" lon="5.16749">
        <ele>233.7376709</ele>
        <time>2015-10-10T09:17:19Z</time>
      </trkpt>
      <trkpt lat="44.06155" lon="5.16819">
        <ele>238.5443115</ele>
        <time>2015-10-10T09:17:34Z</time>
      </trkpt>
      <trkpt lat="44.06165" lon="5.16876">
        <ele>240.467041</ele>
        <time>2015-10-10T09:17:49Z</time>
      </trkpt>
      <trkpt lat="44.06177" lon="5.16924">
        <ele>243.3508301</ele>
        <time>2015-10-10T09:18:04Z</time>
      </trkpt>
      <trkpt lat="44.06185" lon="5.16961">
        <ele>246.7154541</ele>
        <time>2015-10-10T09:18:19Z</time>
      </trkpt>
      <trkpt lat="44.06196" lon="5.17004">
        <ele>250.0802002</ele>
        <time>2015-10-10T09:18:35Z</time>
      </trkpt>
      <trkpt lat="44.06213" lon="5.17044">
        <ele>250.560791</ele>
        <time>2015-10-10T09:18:48Z</time>
      </trkpt>
      <trkpt lat="44.06244" lon="5.17087">
        <ele>247.1960449</ele>
        <time>2015-10-10T09:18:58Z</time>
      </trkpt>
      <trkpt lat="44.06299" lon="5.17163">
        <ele>247.6767578</ele>
        <time>2015-10-10T09:19:14Z</time>
      </trkpt>
      <trkpt lat="44.06331" lon="5.17219">
        <ele>249.5994873</ele>
        <time>2015-10-10T09:19:29Z</time>
      </trkpt>
      <trkpt lat="44.06349" lon="5.1726">
        <ele>248.1575928</ele>
        <time>2015-10-10T09:19:41Z</time>
      </trkpt>
      <trkpt lat="44.06369" lon="5.17315">
        <ele>245.7541504</ele>
        <time>2015-10-10T09:19:52Z</time>
      </trkpt>
      <trkpt lat="44.06397" lon="5.17393">
        <ele>247.1960449</ele>
        <time>2015-10-10T09:20:04Z</time>
      </trkpt>
      <trkpt lat="44.06421" lon="5.17439">
        <ele>246.2348633</ele>
        <time>2015-10-10T09:20:15Z</time>
      </trkpt>
      <trkpt lat="44.06462" lon="5.17517">
        <ele>243.3508301</ele>
        <time>2015-10-10T09:20:32Z</time>
      </trkpt>
      <trkpt lat="44.06491" lon="5.176">
        <ele>243.831543</ele>
        <time>2015-10-10T09:20:45Z</time>
      </trkpt>
      <trkpt lat="44.06529" lon="5.17713">
        <ele>243.831543</ele>
        <time>2015-10-10T09:21:01Z</time>
      </trkpt>
      <trkpt lat="44.06565" lon="5.17821">
        <ele>244.7928467</ele>
        <time>2015-10-10T09:21:15Z</time>
      </trkpt>
      <trkpt lat="44.06581" lon="5.17926">
        <ele>244.7928467</ele>
        <time>2015-10-10T09:21:29Z</time>
      </trkpt>
      <trkpt lat="44.06588" lon="5.17971">
        <ele>243.831543</ele>
        <time>2015-10-10T09:21:36Z</time>
      </trkpt>
      <trkpt lat="44.06626" lon="5.18051">
        <ele>244.7928467</ele>
        <time>2015-10-10T09:21:49Z</time>
      </trkpt>
      <trkpt lat="44.06662" lon="5.18124">
        <ele>242.3896484</ele>
        <time>2015-10-10T09:22:00Z</time>
      </trkpt>
      <trkpt lat="44.06703" lon="5.18183">
        <ele>242.3896484</ele>
        <time>2015-10-10T09:22:11Z</time>
      </trkpt>
      <trkpt lat="44.06711" lon="5.182">
        <ele>242.8702393</ele>
        <time>2015-10-10T09:22:14Z</time>
      </trkpt>
      <trkpt lat="44.06728" lon="5.18273">
        <ele>242.8702393</ele>
        <time>2015-10-10T09:22:25Z</time>
      </trkpt>
      <trkpt lat="44.0672" lon="5.18298">
        <ele>242.3896484</ele>
        <time>2015-10-10T09:22:30Z</time>
      </trkpt>
      <trkpt lat="44.06715" lon="5.18298">
        <ele>242.8702393</ele>
        <time>2015-10-10T09:22:31Z</time>
      </trkpt>
      <trkpt lat="44.0665" lon="5.18299">
        <ele>242.8702393</ele>
        <time>2015-10-10T09:22:42Z</time>
      </trkpt>
      <trkpt lat="44.06561" lon="5.18289">
        <ele>237.1022949</ele>
        <time>2015-10-10T09:22:55Z</time>
      </trkpt>
      <trkpt lat="44.06488" lon="5.18279">
        <ele>236.1409912</ele>
        <time>2015-10-10T09:23:06Z</time>
      </trkpt>
      <trkpt lat="44.06385" lon="5.18267">
        <ele>229.892334</ele>
        <time>2015-10-10T09:23:20Z</time>
      </trkpt>
      <trkpt lat="44.06245" lon="5.18253">
        <ele>222.2017822</ele>
        <time>2015-10-10T09:23:37Z</time>
      </trkpt>
      <trkpt lat="44.06111" lon="5.18238">
        <ele>214.0306396</ele>
        <time>2015-10-10T09:23:52Z</time>
      </trkpt>
      <trkpt lat="44.06053" lon="5.18233">
        <ele>211.6274414</ele>
        <time>2015-10-10T09:23:59Z</time>
      </trkpt>
      <trkpt lat="44.06033" lon="5.18206">
        <ele>210.6660156</ele>
        <time>2015-10-10T09:24:04Z</time>
      </trkpt>
      <trkpt lat="44.06027" lon="5.18197">
        <ele>210.1854248</ele>
        <time>2015-10-10T09:24:06Z</time>
      </trkpt>
      <trkpt lat="44.0602" lon="5.18191">
        <ele>209.704834</ele>
        <time>2015-10-10T09:24:08Z</time>
      </trkpt>
      <trkpt lat="44.06018" lon="5.18181">
        <ele>208.7434082</ele>
        <time>2015-10-10T09:24:15Z</time>
      </trkpt>
      <trkpt lat="44.06019" lon="5.18179">
        <ele>208.7434082</ele>
        <time>2015-10-10T09:24:34Z</time>
      </trkpt>
      <trkpt lat="44.06019" lon="5.18179">
        <ele>208.7434082</ele>
        <time>2015-10-10T09:24:35Z</time>
      </trkpt>
    </trkseg>
  </trk>
</gpx>